<?xml version="1.0" encoding="UTF-8" standalone="no" ?>
<gpx xmlns="http://www.topografix.com/GPX/1/1" xmlns:xsi="http://www.w3.org/2001/XMLSchema-instance" xsi:schemaLocation="http://www.topografix.com/GPX/1/1 http://www.topografix.com/GPX/1/1/gpx.xsd" version="1.1" creator="VisuGPX - https://www.visugpx.com">
  <metadata>
    <name>le sarcolin</name>
    <desc><![CDATA[voilà côte du sarcolin fait encore une belle journée]]></desc>
  </metadata>
  <trk>
    <name><![CDATA[Tracé actuel: 03 OCT 2018 12:58]]></name>
    <trkseg>
      <trkpt lat="49.63458" lon="4.98041">
        <ele>178.46</ele>
        <time>2018-10-03T10:58:47Z</time>
      </trkpt>
      <trkpt lat="49.63457" lon="4.98043">
        <ele>182.79</ele>
        <time>2018-10-03T10:59:11Z</time>
      </trkpt>
      <trkpt lat="49.63452" lon="4.9805">
        <ele>189.04</ele>
        <time>2018-10-03T10:59:28Z</time>
      </trkpt>
      <trkpt lat="49.63448" lon="4.98047">
        <ele>190.96</ele>
        <time>2018-10-03T10:59:42Z</time>
      </trkpt>
      <trkpt lat="49.6344" lon="4.98037">
        <ele>187.11</ele>
        <time>2018-10-03T10:59:57Z</time>
      </trkpt>
      <trkpt lat="49.63429" lon="4.9802">
        <ele>184.23</ele>
        <time>2018-10-03T11:00:14Z</time>
      </trkpt>
      <trkpt lat="49.63422" lon="4.9801">
        <ele>183.27</ele>
        <time>2018-10-03T11:00:24Z</time>
      </trkpt>
      <trkpt lat="49.63409" lon="4.97989">
        <ele>179.9</ele>
        <time>2018-10-03T11:00:42Z</time>
      </trkpt>
      <trkpt lat="49.63402" lon="4.97974">
        <ele>177.5</ele>
        <time>2018-10-03T11:00:56Z</time>
      </trkpt>
      <trkpt lat="49.63395" lon="4.97964">
        <ele>175.58</ele>
        <time>2018-10-03T11:01:09Z</time>
      </trkpt>
      <trkpt lat="49.63398" lon="4.97952">
        <ele>170.77</ele>
        <time>2018-10-03T11:01:24Z</time>
      </trkpt>
      <trkpt lat="49.63402" lon="4.97948">
        <ele>168.85</ele>
        <time>2018-10-03T11:01:30Z</time>
      </trkpt>
      <trkpt lat="49.63412" lon="4.97924">
        <ele>166.45</ele>
        <time>2018-10-03T11:01:46Z</time>
      </trkpt>
      <trkpt lat="49.63428" lon="4.97909">
        <ele>162.12</ele>
        <time>2018-10-03T11:02:05Z</time>
      </trkpt>
      <trkpt lat="49.63446" lon="4.97899">
        <ele>159.72</ele>
        <time>2018-10-03T11:02:24Z</time>
      </trkpt>
      <trkpt lat="49.6346" lon="4.97895">
        <ele>157.79</ele>
        <time>2018-10-03T11:02:39Z</time>
      </trkpt>
      <trkpt lat="49.63468" lon="4.97877">
        <ele>154.91</ele>
        <time>2018-10-03T11:02:52Z</time>
      </trkpt>
      <trkpt lat="49.63482" lon="4.9785">
        <ele>154.43</ele>
        <time>2018-10-03T11:03:12Z</time>
      </trkpt>
      <trkpt lat="49.63492" lon="4.97834">
        <ele>154.43</ele>
        <time>2018-10-03T11:03:27Z</time>
      </trkpt>
      <trkpt lat="49.63507" lon="4.97818">
        <ele>156.35</ele>
        <time>2018-10-03T11:03:43Z</time>
      </trkpt>
      <trkpt lat="49.63525" lon="4.97803">
        <ele>152.99</ele>
        <time>2018-10-03T11:04:03Z</time>
      </trkpt>
      <trkpt lat="49.63538" lon="4.97784">
        <ele>152.51</ele>
        <time>2018-10-03T11:04:20Z</time>
      </trkpt>
      <trkpt lat="49.63548" lon="4.97761">
        <ele>151.06</ele>
        <time>2018-10-03T11:04:38Z</time>
      </trkpt>
      <trkpt lat="49.6356" lon="4.97741">
        <ele>148.66</ele>
        <time>2018-10-03T11:04:55Z</time>
      </trkpt>
      <trkpt lat="49.63561" lon="4.97738">
        <ele>148.18</ele>
        <time>2018-10-03T11:04:58Z</time>
      </trkpt>
      <trkpt lat="49.63575" lon="4.97716">
        <ele>148.18</ele>
        <time>2018-10-03T11:05:17Z</time>
      </trkpt>
      <trkpt lat="49.63586" lon="4.97696">
        <ele>145.78</ele>
        <time>2018-10-03T11:05:34Z</time>
      </trkpt>
      <trkpt lat="49.63593" lon="4.97679">
        <ele>149.62</ele>
        <time>2018-10-03T11:05:45Z</time>
      </trkpt>
      <trkpt lat="49.636" lon="4.97667">
        <ele>151.54</ele>
        <time>2018-10-03T11:05:54Z</time>
      </trkpt>
      <trkpt lat="49.63602" lon="4.97655">
        <ele>153.47</ele>
        <time>2018-10-03T11:06:01Z</time>
      </trkpt>
      <trkpt lat="49.63588" lon="4.97633">
        <ele>159.72</ele>
        <time>2018-10-03T11:06:19Z</time>
      </trkpt>
      <trkpt lat="49.63571" lon="4.97609">
        <ele>160.68</ele>
        <time>2018-10-03T11:06:38Z</time>
      </trkpt>
      <trkpt lat="49.6356" lon="4.97592">
        <ele>163.56</ele>
        <time>2018-10-03T11:06:52Z</time>
      </trkpt>
      <trkpt lat="49.63549" lon="4.97575">
        <ele>164.04</ele>
        <time>2018-10-03T11:07:05Z</time>
      </trkpt>
      <trkpt lat="49.63536" lon="4.97552">
        <ele>165.48</ele>
        <time>2018-10-03T11:07:22Z</time>
      </trkpt>
      <trkpt lat="49.63524" lon="4.97532">
        <ele>165.48</ele>
        <time>2018-10-03T11:07:38Z</time>
      </trkpt>
      <trkpt lat="49.63514" lon="4.97512">
        <ele>166.93</ele>
        <time>2018-10-03T11:07:53Z</time>
      </trkpt>
      <trkpt lat="49.63502" lon="4.9749">
        <ele>168.37</ele>
        <time>2018-10-03T11:08:09Z</time>
      </trkpt>
      <trkpt lat="49.63492" lon="4.97474">
        <ele>167.89</ele>
        <time>2018-10-03T11:08:24Z</time>
      </trkpt>
      <trkpt lat="49.63483" lon="4.97455">
        <ele>165.96</ele>
        <time>2018-10-03T11:08:39Z</time>
      </trkpt>
      <trkpt lat="49.63476" lon="4.97446">
        <ele>165</ele>
        <time>2018-10-03T11:08:56Z</time>
      </trkpt>
      <trkpt lat="49.63464" lon="4.97426">
        <ele>163.08</ele>
        <time>2018-10-03T11:09:12Z</time>
      </trkpt>
      <trkpt lat="49.63452" lon="4.97403">
        <ele>163.08</ele>
        <time>2018-10-03T11:09:29Z</time>
      </trkpt>
      <trkpt lat="49.63441" lon="4.97382">
        <ele>161.16</ele>
        <time>2018-10-03T11:09:44Z</time>
      </trkpt>
      <trkpt lat="49.63432" lon="4.97364">
        <ele>159.24</ele>
        <time>2018-10-03T11:10:00Z</time>
      </trkpt>
      <trkpt lat="49.63424" lon="4.97351">
        <ele>159.24</ele>
        <time>2018-10-03T11:10:14Z</time>
      </trkpt>
      <trkpt lat="49.63418" lon="4.97341">
        <ele>158.75</ele>
        <time>2018-10-03T11:10:20Z</time>
      </trkpt>
      <trkpt lat="49.63406" lon="4.97316">
        <ele>159.24</ele>
        <time>2018-10-03T11:10:36Z</time>
      </trkpt>
      <trkpt lat="49.63393" lon="4.97291">
        <ele>158.75</ele>
        <time>2018-10-03T11:10:51Z</time>
      </trkpt>
      <trkpt lat="49.63381" lon="4.9727">
        <ele>158.27</ele>
        <time>2018-10-03T11:11:07Z</time>
      </trkpt>
      <trkpt lat="49.63375" lon="4.9726">
        <ele>159.72</ele>
        <time>2018-10-03T11:11:20Z</time>
      </trkpt>
      <trkpt lat="49.63366" lon="4.97249">
        <ele>159.24</ele>
        <time>2018-10-03T11:11:32Z</time>
      </trkpt>
      <trkpt lat="49.6336" lon="4.97231">
        <ele>158.27</ele>
        <time>2018-10-03T11:11:47Z</time>
      </trkpt>
      <trkpt lat="49.63352" lon="4.97209">
        <ele>158.27</ele>
        <time>2018-10-03T11:12:01Z</time>
      </trkpt>
      <trkpt lat="49.63347" lon="4.97195">
        <ele>159.24</ele>
        <time>2018-10-03T11:12:14Z</time>
      </trkpt>
      <trkpt lat="49.63342" lon="4.9718">
        <ele>156.83</ele>
        <time>2018-10-03T11:12:27Z</time>
      </trkpt>
      <trkpt lat="49.63339" lon="4.97165">
        <ele>157.79</ele>
        <time>2018-10-03T11:12:41Z</time>
      </trkpt>
      <trkpt lat="49.63333" lon="4.97138">
        <ele>153.95</ele>
        <time>2018-10-03T11:12:55Z</time>
      </trkpt>
      <trkpt lat="49.63327" lon="4.97107">
        <ele>151.54</ele>
        <time>2018-10-03T11:13:12Z</time>
      </trkpt>
      <trkpt lat="49.6332" lon="4.97079">
        <ele>150.1</ele>
        <time>2018-10-03T11:13:27Z</time>
      </trkpt>
      <trkpt lat="49.63315" lon="4.97052">
        <ele>147.7</ele>
        <time>2018-10-03T11:13:42Z</time>
      </trkpt>
      <trkpt lat="49.63307" lon="4.97026">
        <ele>145.78</ele>
        <time>2018-10-03T11:13:56Z</time>
      </trkpt>
      <trkpt lat="49.63301" lon="4.96994">
        <ele>147.22</ele>
        <time>2018-10-03T11:14:12Z</time>
      </trkpt>
      <trkpt lat="49.63294" lon="4.96967">
        <ele>148.18</ele>
        <time>2018-10-03T11:14:28Z</time>
      </trkpt>
      <trkpt lat="49.63286" lon="4.96939">
        <ele>148.18</ele>
        <time>2018-10-03T11:14:45Z</time>
      </trkpt>
      <trkpt lat="49.63279" lon="4.96916">
        <ele>148.18</ele>
        <time>2018-10-03T11:15:00Z</time>
      </trkpt>
      <trkpt lat="49.6327" lon="4.96896">
        <ele>150.58</ele>
        <time>2018-10-03T11:15:16Z</time>
      </trkpt>
      <trkpt lat="49.63259" lon="4.96869">
        <ele>151.06</ele>
        <time>2018-10-03T11:15:32Z</time>
      </trkpt>
      <trkpt lat="49.63248" lon="4.96845">
        <ele>152.51</ele>
        <time>2018-10-03T11:15:46Z</time>
      </trkpt>
      <trkpt lat="49.63233" lon="4.96821">
        <ele>156.83</ele>
        <time>2018-10-03T11:16:00Z</time>
      </trkpt>
      <trkpt lat="49.63216" lon="4.96797">
        <ele>159.72</ele>
        <time>2018-10-03T11:16:17Z</time>
      </trkpt>
      <trkpt lat="49.63215" lon="4.96794">
        <ele>159.72</ele>
        <time>2018-10-03T11:16:19Z</time>
      </trkpt>
      <trkpt lat="49.63201" lon="4.96774">
        <ele>161.16</ele>
        <time>2018-10-03T11:16:37Z</time>
      </trkpt>
      <trkpt lat="49.63187" lon="4.96757">
        <ele>162.12</ele>
        <time>2018-10-03T11:16:51Z</time>
      </trkpt>
      <trkpt lat="49.63169" lon="4.96738">
        <ele>164.52</ele>
        <time>2018-10-03T11:17:08Z</time>
      </trkpt>
      <trkpt lat="49.63151" lon="4.96722">
        <ele>166.45</ele>
        <time>2018-10-03T11:17:25Z</time>
      </trkpt>
      <trkpt lat="49.63132" lon="4.96703">
        <ele>165.48</ele>
        <time>2018-10-03T11:17:43Z</time>
      </trkpt>
      <trkpt lat="49.63118" lon="4.96693">
        <ele>164.52</ele>
        <time>2018-10-03T11:17:57Z</time>
      </trkpt>
      <trkpt lat="49.63102" lon="4.96677">
        <ele>161.64</ele>
        <time>2018-10-03T11:18:13Z</time>
      </trkpt>
      <trkpt lat="49.63092" lon="4.96668">
        <ele>158.75</ele>
        <time>2018-10-03T11:18:23Z</time>
      </trkpt>
      <trkpt lat="49.63077" lon="4.9665">
        <ele>155.87</ele>
        <time>2018-10-03T11:18:40Z</time>
      </trkpt>
      <trkpt lat="49.63064" lon="4.96642">
        <ele>152.03</ele>
        <time>2018-10-03T11:18:54Z</time>
      </trkpt>
      <trkpt lat="49.63047" lon="4.96631">
        <ele>149.14</ele>
        <time>2018-10-03T11:19:12Z</time>
      </trkpt>
      <trkpt lat="49.63032" lon="4.96616">
        <ele>149.62</ele>
        <time>2018-10-03T11:19:28Z</time>
      </trkpt>
      <trkpt lat="49.63017" lon="4.96602">
        <ele>150.58</ele>
        <time>2018-10-03T11:19:43Z</time>
      </trkpt>
      <trkpt lat="49.63001" lon="4.96588">
        <ele>147.7</ele>
        <time>2018-10-03T11:19:59Z</time>
      </trkpt>
      <trkpt lat="49.62986" lon="4.96576">
        <ele>151.06</ele>
        <time>2018-10-03T11:20:15Z</time>
      </trkpt>
      <trkpt lat="49.62977" lon="4.96568">
        <ele>151.06</ele>
        <time>2018-10-03T11:20:28Z</time>
      </trkpt>
      <trkpt lat="49.62963" lon="4.96554">
        <ele>152.51</ele>
        <time>2018-10-03T11:20:41Z</time>
      </trkpt>
      <trkpt lat="49.62952" lon="4.96543">
        <ele>152.03</ele>
        <time>2018-10-03T11:20:53Z</time>
      </trkpt>
      <trkpt lat="49.62931" lon="4.96525">
        <ele>153.95</ele>
        <time>2018-10-03T11:21:10Z</time>
      </trkpt>
      <trkpt lat="49.62912" lon="4.96512">
        <ele>159.72</ele>
        <time>2018-10-03T11:21:25Z</time>
      </trkpt>
      <trkpt lat="49.62891" lon="4.96497">
        <ele>163.08</ele>
        <time>2018-10-03T11:21:43Z</time>
      </trkpt>
      <trkpt lat="49.62871" lon="4.96486">
        <ele>162.6</ele>
        <time>2018-10-03T11:22:01Z</time>
      </trkpt>
      <trkpt lat="49.62857" lon="4.9648">
        <ele>161.64</ele>
        <time>2018-10-03T11:22:17Z</time>
      </trkpt>
      <trkpt lat="49.62842" lon="4.96472">
        <ele>162.6</ele>
        <time>2018-10-03T11:22:33Z</time>
      </trkpt>
      <trkpt lat="49.62826" lon="4.96463">
        <ele>165</ele>
        <time>2018-10-03T11:22:47Z</time>
      </trkpt>
      <trkpt lat="49.62808" lon="4.96454">
        <ele>166.45</ele>
        <time>2018-10-03T11:23:03Z</time>
      </trkpt>
      <trkpt lat="49.62792" lon="4.96444">
        <ele>168.37</ele>
        <time>2018-10-03T11:23:17Z</time>
      </trkpt>
      <trkpt lat="49.62776" lon="4.96435">
        <ele>170.29</ele>
        <time>2018-10-03T11:23:31Z</time>
      </trkpt>
      <trkpt lat="49.62758" lon="4.96424">
        <ele>170.29</ele>
        <time>2018-10-03T11:23:47Z</time>
      </trkpt>
      <trkpt lat="49.62749" lon="4.96419">
        <ele>169.81</ele>
        <time>2018-10-03T11:23:55Z</time>
      </trkpt>
      <trkpt lat="49.62742" lon="4.96415">
        <ele>169.81</ele>
        <time>2018-10-03T11:24:00Z</time>
      </trkpt>
      <trkpt lat="49.62719" lon="4.96403">
        <ele>172.21</ele>
        <time>2018-10-03T11:24:19Z</time>
      </trkpt>
      <trkpt lat="49.62699" lon="4.96392">
        <ele>175.58</ele>
        <time>2018-10-03T11:24:36Z</time>
      </trkpt>
      <trkpt lat="49.62681" lon="4.96382">
        <ele>177.5</ele>
        <time>2018-10-03T11:24:51Z</time>
      </trkpt>
      <trkpt lat="49.62663" lon="4.96371">
        <ele>178.94</ele>
        <time>2018-10-03T11:25:06Z</time>
      </trkpt>
      <trkpt lat="49.62648" lon="4.96363">
        <ele>178.94</ele>
        <time>2018-10-03T11:25:19Z</time>
      </trkpt>
      <trkpt lat="49.62627" lon="4.96353">
        <ele>178.94</ele>
        <time>2018-10-03T11:25:38Z</time>
      </trkpt>
      <trkpt lat="49.62605" lon="4.96342">
        <ele>178.46</ele>
        <time>2018-10-03T11:25:59Z</time>
      </trkpt>
      <trkpt lat="49.62584" lon="4.96331">
        <ele>177.5</ele>
        <time>2018-10-03T11:26:18Z</time>
      </trkpt>
      <trkpt lat="49.62564" lon="4.96319">
        <ele>177.98</ele>
        <time>2018-10-03T11:26:35Z</time>
      </trkpt>
      <trkpt lat="49.62556" lon="4.96315">
        <ele>177.98</ele>
        <time>2018-10-03T11:26:42Z</time>
      </trkpt>
      <trkpt lat="49.62537" lon="4.96306">
        <ele>177.98</ele>
        <time>2018-10-03T11:26:59Z</time>
      </trkpt>
      <trkpt lat="49.62519" lon="4.96298">
        <ele>178.46</ele>
        <time>2018-10-03T11:27:15Z</time>
      </trkpt>
      <trkpt lat="49.62512" lon="4.96296">
        <ele>177.02</ele>
        <time>2018-10-03T11:27:22Z</time>
      </trkpt>
      <trkpt lat="49.62495" lon="4.96286">
        <ele>177.02</ele>
        <time>2018-10-03T11:27:37Z</time>
      </trkpt>
      <trkpt lat="49.62483" lon="4.96284">
        <ele>176.06</ele>
        <time>2018-10-03T11:27:49Z</time>
      </trkpt>
      <trkpt lat="49.62472" lon="4.96281">
        <ele>172.69</ele>
        <time>2018-10-03T11:28:02Z</time>
      </trkpt>
      <trkpt lat="49.62457" lon="4.96271">
        <ele>173.17</ele>
        <time>2018-10-03T11:28:15Z</time>
      </trkpt>
      <trkpt lat="49.62434" lon="4.96257">
        <ele>179.9</ele>
        <time>2018-10-03T11:28:33Z</time>
      </trkpt>
      <trkpt lat="49.62416" lon="4.96241">
        <ele>181.83</ele>
        <time>2018-10-03T11:28:49Z</time>
      </trkpt>
      <trkpt lat="49.62397" lon="4.9623">
        <ele>178.46</ele>
        <time>2018-10-03T11:29:08Z</time>
      </trkpt>
      <trkpt lat="49.62378" lon="4.96224">
        <ele>173.17</ele>
        <time>2018-10-03T11:29:26Z</time>
      </trkpt>
      <trkpt lat="49.62357" lon="4.96217">
        <ele>175.58</ele>
        <time>2018-10-03T11:29:42Z</time>
      </trkpt>
      <trkpt lat="49.62336" lon="4.96213">
        <ele>177.5</ele>
        <time>2018-10-03T11:29:59Z</time>
      </trkpt>
      <trkpt lat="49.62313" lon="4.96208">
        <ele>177.5</ele>
        <time>2018-10-03T11:30:19Z</time>
      </trkpt>
      <trkpt lat="49.62288" lon="4.96203">
        <ele>176.54</ele>
        <time>2018-10-03T11:30:40Z</time>
      </trkpt>
      <trkpt lat="49.62267" lon="4.96198">
        <ele>176.54</ele>
        <time>2018-10-03T11:30:58Z</time>
      </trkpt>
      <trkpt lat="49.62249" lon="4.96196">
        <ele>174.14</ele>
        <time>2018-10-03T11:31:14Z</time>
      </trkpt>
      <trkpt lat="49.62236" lon="4.96191">
        <ele>177.5</ele>
        <time>2018-10-03T11:31:25Z</time>
      </trkpt>
      <trkpt lat="49.62215" lon="4.96182">
        <ele>178.94</ele>
        <time>2018-10-03T11:31:42Z</time>
      </trkpt>
      <trkpt lat="49.62199" lon="4.9618">
        <ele>178.94</ele>
        <time>2018-10-03T11:31:57Z</time>
      </trkpt>
      <trkpt lat="49.62179" lon="4.96175">
        <ele>177.5</ele>
        <time>2018-10-03T11:32:14Z</time>
      </trkpt>
      <trkpt lat="49.62159" lon="4.96168">
        <ele>178.46</ele>
        <time>2018-10-03T11:32:30Z</time>
      </trkpt>
      <trkpt lat="49.62138" lon="4.96164">
        <ele>177.98</ele>
        <time>2018-10-03T11:32:48Z</time>
      </trkpt>
      <trkpt lat="49.62117" lon="4.96158">
        <ele>179.42</ele>
        <time>2018-10-03T11:33:06Z</time>
      </trkpt>
      <trkpt lat="49.62095" lon="4.96153">
        <ele>176.54</ele>
        <time>2018-10-03T11:33:26Z</time>
      </trkpt>
      <trkpt lat="49.62072" lon="4.96145">
        <ele>177.5</ele>
        <time>2018-10-03T11:33:46Z</time>
      </trkpt>
      <trkpt lat="49.6205" lon="4.96141">
        <ele>177.02</ele>
        <time>2018-10-03T11:34:04Z</time>
      </trkpt>
      <trkpt lat="49.62032" lon="4.96138">
        <ele>175.58</ele>
        <time>2018-10-03T11:34:19Z</time>
      </trkpt>
      <trkpt lat="49.62011" lon="4.96134">
        <ele>175.1</ele>
        <time>2018-10-03T11:34:37Z</time>
      </trkpt>
      <trkpt lat="49.61992" lon="4.9613">
        <ele>174.14</ele>
        <time>2018-10-03T11:34:55Z</time>
      </trkpt>
      <trkpt lat="49.61971" lon="4.96125">
        <ele>175.58</ele>
        <time>2018-10-03T11:35:11Z</time>
      </trkpt>
      <trkpt lat="49.61949" lon="4.9612">
        <ele>174.14</ele>
        <time>2018-10-03T11:35:30Z</time>
      </trkpt>
      <trkpt lat="49.61926" lon="4.96112">
        <ele>173.66</ele>
        <time>2018-10-03T11:35:48Z</time>
      </trkpt>
      <trkpt lat="49.61901" lon="4.96105">
        <ele>177.5</ele>
        <time>2018-10-03T11:36:09Z</time>
      </trkpt>
      <trkpt lat="49.61879" lon="4.96101">
        <ele>174.62</ele>
        <time>2018-10-03T11:36:28Z</time>
      </trkpt>
      <trkpt lat="49.61856" lon="4.96093">
        <ele>176.54</ele>
        <time>2018-10-03T11:36:46Z</time>
      </trkpt>
      <trkpt lat="49.61837" lon="4.96083">
        <ele>177.98</ele>
        <time>2018-10-03T11:37:03Z</time>
      </trkpt>
      <trkpt lat="49.61816" lon="4.96078">
        <ele>178.46</ele>
        <time>2018-10-03T11:37:21Z</time>
      </trkpt>
      <trkpt lat="49.61812" lon="4.96076">
        <ele>178.94</ele>
        <time>2018-10-03T11:37:25Z</time>
      </trkpt>
      <trkpt lat="49.61789" lon="4.96069">
        <ele>181.35</ele>
        <time>2018-10-03T11:37:44Z</time>
      </trkpt>
      <trkpt lat="49.61777" lon="4.96068">
        <ele>180.38</ele>
        <time>2018-10-03T11:37:54Z</time>
      </trkpt>
      <trkpt lat="49.61756" lon="4.96061">
        <ele>176.54</ele>
        <time>2018-10-03T11:38:15Z</time>
      </trkpt>
      <trkpt lat="49.61739" lon="4.96056">
        <ele>171.73</ele>
        <time>2018-10-03T11:38:31Z</time>
      </trkpt>
      <trkpt lat="49.61719" lon="4.96049">
        <ele>171.73</ele>
        <time>2018-10-03T11:38:48Z</time>
      </trkpt>
      <trkpt lat="49.617" lon="4.96046">
        <ele>169.81</ele>
        <time>2018-10-03T11:39:06Z</time>
      </trkpt>
      <trkpt lat="49.61683" lon="4.96044">
        <ele>165</ele>
        <time>2018-10-03T11:39:24Z</time>
      </trkpt>
      <trkpt lat="49.6167" lon="4.96041">
        <ele>162.6</ele>
        <time>2018-10-03T11:39:36Z</time>
      </trkpt>
      <trkpt lat="49.61649" lon="4.96025">
        <ele>164.04</ele>
        <time>2018-10-03T11:39:54Z</time>
      </trkpt>
      <trkpt lat="49.6163" lon="4.9602">
        <ele>165.96</ele>
        <time>2018-10-03T11:40:10Z</time>
      </trkpt>
      <trkpt lat="49.61609" lon="4.96018">
        <ele>170.29</ele>
        <time>2018-10-03T11:40:26Z</time>
      </trkpt>
      <trkpt lat="49.61582" lon="4.9601">
        <ele>173.17</ele>
        <time>2018-10-03T11:40:45Z</time>
      </trkpt>
      <trkpt lat="49.61563" lon="4.96003">
        <ele>175.1</ele>
        <time>2018-10-03T11:41:02Z</time>
      </trkpt>
      <trkpt lat="49.61543" lon="4.95994">
        <ele>177.5</ele>
        <time>2018-10-03T11:41:19Z</time>
      </trkpt>
      <trkpt lat="49.61529" lon="4.95986">
        <ele>174.62</ele>
        <time>2018-10-03T11:41:34Z</time>
      </trkpt>
      <trkpt lat="49.61511" lon="4.95979">
        <ele>177.02</ele>
        <time>2018-10-03T11:41:47Z</time>
      </trkpt>
      <trkpt lat="49.61494" lon="4.95965">
        <ele>179.42</ele>
        <time>2018-10-03T11:42:04Z</time>
      </trkpt>
      <trkpt lat="49.61477" lon="4.95951">
        <ele>180.38</ele>
        <time>2018-10-03T11:42:20Z</time>
      </trkpt>
      <trkpt lat="49.61458" lon="4.95938">
        <ele>181.35</ele>
        <time>2018-10-03T11:42:35Z</time>
      </trkpt>
      <trkpt lat="49.61444" lon="4.95918">
        <ele>179.42</ele>
        <time>2018-10-03T11:42:51Z</time>
      </trkpt>
      <trkpt lat="49.61436" lon="4.95901">
        <ele>174.62</ele>
        <time>2018-10-03T11:43:07Z</time>
      </trkpt>
      <trkpt lat="49.6142" lon="4.95877">
        <ele>175.58</ele>
        <time>2018-10-03T11:43:24Z</time>
      </trkpt>
      <trkpt lat="49.61408" lon="4.95862">
        <ele>171.73</ele>
        <time>2018-10-03T11:43:40Z</time>
      </trkpt>
      <trkpt lat="49.61401" lon="4.95854">
        <ele>171.25</ele>
        <time>2018-10-03T11:43:47Z</time>
      </trkpt>
      <trkpt lat="49.61382" lon="4.95829">
        <ele>172.69</ele>
        <time>2018-10-03T11:44:05Z</time>
      </trkpt>
      <trkpt lat="49.6137" lon="4.95813">
        <ele>172.69</ele>
        <time>2018-10-03T11:44:21Z</time>
      </trkpt>
      <trkpt lat="49.61354" lon="4.95788">
        <ele>177.02</ele>
        <time>2018-10-03T11:44:40Z</time>
      </trkpt>
      <trkpt lat="49.61342" lon="4.95772">
        <ele>178.94</ele>
        <time>2018-10-03T11:44:54Z</time>
      </trkpt>
      <trkpt lat="49.61333" lon="4.95761">
        <ele>178.94</ele>
        <time>2018-10-03T11:45:04Z</time>
      </trkpt>
      <trkpt lat="49.61316" lon="4.9574">
        <ele>178.46</ele>
        <time>2018-10-03T11:45:20Z</time>
      </trkpt>
      <trkpt lat="49.61315" lon="4.95739">
        <ele>178.94</ele>
        <time>2018-10-03T11:45:22Z</time>
      </trkpt>
      <trkpt lat="49.613" lon="4.95725">
        <ele>180.38</ele>
        <time>2018-10-03T11:45:36Z</time>
      </trkpt>
      <trkpt lat="49.61281" lon="4.95711">
        <ele>182.31</ele>
        <time>2018-10-03T11:45:52Z</time>
      </trkpt>
      <trkpt lat="49.61263" lon="4.95696">
        <ele>184.71</ele>
        <time>2018-10-03T11:46:10Z</time>
      </trkpt>
      <trkpt lat="49.61245" lon="4.95681">
        <ele>185.19</ele>
        <time>2018-10-03T11:46:26Z</time>
      </trkpt>
      <trkpt lat="49.61227" lon="4.95668">
        <ele>183.27</ele>
        <time>2018-10-03T11:46:44Z</time>
      </trkpt>
      <trkpt lat="49.61208" lon="4.95657">
        <ele>182.31</ele>
        <time>2018-10-03T11:47:00Z</time>
      </trkpt>
      <trkpt lat="49.61189" lon="4.9565">
        <ele>182.79</ele>
        <time>2018-10-03T11:47:17Z</time>
      </trkpt>
      <trkpt lat="49.61171" lon="4.95637">
        <ele>182.31</ele>
        <time>2018-10-03T11:47:33Z</time>
      </trkpt>
      <trkpt lat="49.61154" lon="4.95628">
        <ele>181.35</ele>
        <time>2018-10-03T11:47:50Z</time>
      </trkpt>
      <trkpt lat="49.61136" lon="4.95616">
        <ele>179.9</ele>
        <time>2018-10-03T11:48:08Z</time>
      </trkpt>
      <trkpt lat="49.61113" lon="4.95603">
        <ele>179.9</ele>
        <time>2018-10-03T11:48:29Z</time>
      </trkpt>
      <trkpt lat="49.61112" lon="4.95603">
        <ele>180.38</ele>
        <time>2018-10-03T11:48:42Z</time>
      </trkpt>
      <trkpt lat="49.61116" lon="4.95634">
        <ele>177.98</ele>
        <time>2018-10-03T11:49:00Z</time>
      </trkpt>
      <trkpt lat="49.6112" lon="4.95659">
        <ele>179.42</ele>
        <time>2018-10-03T11:49:15Z</time>
      </trkpt>
      <trkpt lat="49.61114" lon="4.95682">
        <ele>178.94</ele>
        <time>2018-10-03T11:49:31Z</time>
      </trkpt>
      <trkpt lat="49.61102" lon="4.95701">
        <ele>179.9</ele>
        <time>2018-10-03T11:49:46Z</time>
      </trkpt>
      <trkpt lat="49.61088" lon="4.9572">
        <ele>180.38</ele>
        <time>2018-10-03T11:50:01Z</time>
      </trkpt>
      <trkpt lat="49.61086" lon="4.95723">
        <ele>180.38</ele>
        <time>2018-10-03T11:50:03Z</time>
      </trkpt>
      <trkpt lat="49.61086" lon="4.95738">
        <ele>183.75</ele>
        <time>2018-10-03T11:50:12Z</time>
      </trkpt>
      <trkpt lat="49.61097" lon="4.95751">
        <ele>185.19</ele>
        <time>2018-10-03T11:50:25Z</time>
      </trkpt>
      <trkpt lat="49.61099" lon="4.95754">
        <ele>186.15</ele>
        <time>2018-10-03T11:50:28Z</time>
      </trkpt>
      <trkpt lat="49.61118" lon="4.9577">
        <ele>188.56</ele>
        <time>2018-10-03T11:50:46Z</time>
      </trkpt>
      <trkpt lat="49.61122" lon="4.95774">
        <ele>188.56</ele>
        <time>2018-10-03T11:50:51Z</time>
      </trkpt>
      <trkpt lat="49.61132" lon="4.95781">
        <ele>186.63</ele>
        <time>2018-10-03T11:51:03Z</time>
      </trkpt>
      <trkpt lat="49.61135" lon="4.95784">
        <ele>186.63</ele>
        <time>2018-10-03T11:51:06Z</time>
      </trkpt>
      <trkpt lat="49.6115" lon="4.95799">
        <ele>189.52</ele>
        <time>2018-10-03T11:51:21Z</time>
      </trkpt>
      <trkpt lat="49.61158" lon="4.95808">
        <ele>190.96</ele>
        <time>2018-10-03T11:51:30Z</time>
      </trkpt>
      <trkpt lat="49.61162" lon="4.95819">
        <ele>191.44</ele>
        <time>2018-10-03T11:51:38Z</time>
      </trkpt>
      <trkpt lat="49.6116" lon="4.95821">
        <ele>192.88</ele>
        <time>2018-10-03T11:51:41Z</time>
      </trkpt>
      <trkpt lat="49.61144" lon="4.95823">
        <ele>192.88</ele>
        <time>2018-10-03T11:51:57Z</time>
      </trkpt>
      <trkpt lat="49.61125" lon="4.95825">
        <ele>195.28</ele>
        <time>2018-10-03T11:52:13Z</time>
      </trkpt>
      <trkpt lat="49.6112" lon="4.95825">
        <ele>195.77</ele>
        <time>2018-10-03T11:52:17Z</time>
      </trkpt>
      <trkpt lat="49.61114" lon="4.95832">
        <ele>195.77</ele>
        <time>2018-10-03T11:52:28Z</time>
      </trkpt>
      <trkpt lat="49.61112" lon="4.95843">
        <ele>196.73</ele>
        <time>2018-10-03T11:52:35Z</time>
      </trkpt>
      <trkpt lat="49.61126" lon="4.95854">
        <ele>196.73</ele>
        <time>2018-10-03T11:52:48Z</time>
      </trkpt>
      <trkpt lat="49.61145" lon="4.95869">
        <ele>199.13</ele>
        <time>2018-10-03T11:53:07Z</time>
      </trkpt>
      <trkpt lat="49.61162" lon="4.95884">
        <ele>197.69</ele>
        <time>2018-10-03T11:53:24Z</time>
      </trkpt>
      <trkpt lat="49.61178" lon="4.959">
        <ele>196.25</ele>
        <time>2018-10-03T11:53:42Z</time>
      </trkpt>
      <trkpt lat="49.61193" lon="4.95914">
        <ele>196.25</ele>
        <time>2018-10-03T11:53:59Z</time>
      </trkpt>
      <trkpt lat="49.61202" lon="4.95924">
        <ele>197.69</ele>
        <time>2018-10-03T11:54:08Z</time>
      </trkpt>
      <trkpt lat="49.61211" lon="4.95947">
        <ele>197.69</ele>
        <time>2018-10-03T11:54:25Z</time>
      </trkpt>
      <trkpt lat="49.61217" lon="4.95973">
        <ele>197.69</ele>
        <time>2018-10-03T11:54:42Z</time>
      </trkpt>
      <trkpt lat="49.61223" lon="4.96">
        <ele>198.17</ele>
        <time>2018-10-03T11:54:58Z</time>
      </trkpt>
      <trkpt lat="49.61226" lon="4.9602">
        <ele>198.65</ele>
        <time>2018-10-03T11:55:11Z</time>
      </trkpt>
      <trkpt lat="49.61228" lon="4.96028">
        <ele>199.13</ele>
        <time>2018-10-03T11:55:16Z</time>
      </trkpt>
      <trkpt lat="49.6123" lon="4.96036">
        <ele>199.61</ele>
        <time>2018-10-03T11:55:21Z</time>
      </trkpt>
      <trkpt lat="49.61238" lon="4.96065">
        <ele>205.86</ele>
        <time>2018-10-03T11:55:38Z</time>
      </trkpt>
      <trkpt lat="49.61245" lon="4.96091">
        <ele>208.74</ele>
        <time>2018-10-03T11:55:54Z</time>
      </trkpt>
      <trkpt lat="49.61248" lon="4.96107">
        <ele>208.74</ele>
        <time>2018-10-03T11:56:05Z</time>
      </trkpt>
      <trkpt lat="49.61255" lon="4.96138">
        <ele>213.55</ele>
        <time>2018-10-03T11:56:23Z</time>
      </trkpt>
      <trkpt lat="49.61261" lon="4.96164">
        <ele>216.43</ele>
        <time>2018-10-03T11:56:40Z</time>
      </trkpt>
      <trkpt lat="49.61264" lon="4.96176">
        <ele>217.4</ele>
        <time>2018-10-03T11:56:48Z</time>
      </trkpt>
      <trkpt lat="49.61271" lon="4.962">
        <ele>218.84</ele>
        <time>2018-10-03T11:57:04Z</time>
      </trkpt>
      <trkpt lat="49.61279" lon="4.96226">
        <ele>219.8</ele>
        <time>2018-10-03T11:57:22Z</time>
      </trkpt>
      <trkpt lat="49.61281" lon="4.96234">
        <ele>220.28</ele>
        <time>2018-10-03T11:57:27Z</time>
      </trkpt>
      <trkpt lat="49.61287" lon="4.9626">
        <ele>220.28</ele>
        <time>2018-10-03T11:57:44Z</time>
      </trkpt>
      <trkpt lat="49.61293" lon="4.96278">
        <ele>220.76</ele>
        <time>2018-10-03T11:57:58Z</time>
      </trkpt>
      <trkpt lat="49.61296" lon="4.96288">
        <ele>221.24</ele>
        <time>2018-10-03T11:58:05Z</time>
      </trkpt>
      <trkpt lat="49.613" lon="4.96309">
        <ele>219.8</ele>
        <time>2018-10-03T11:58:19Z</time>
      </trkpt>
      <trkpt lat="49.61303" lon="4.96331">
        <ele>218.36</ele>
        <time>2018-10-03T11:58:34Z</time>
      </trkpt>
      <trkpt lat="49.61305" lon="4.96335">
        <ele>219.32</ele>
        <time>2018-10-03T11:58:44Z</time>
      </trkpt>
      <trkpt lat="49.61314" lon="4.96356">
        <ele>223.16</ele>
        <time>2018-10-03T11:58:58Z</time>
      </trkpt>
      <trkpt lat="49.61324" lon="4.9638">
        <ele>227.01</ele>
        <time>2018-10-03T11:59:15Z</time>
      </trkpt>
      <trkpt lat="49.61337" lon="4.96398">
        <ele>228.93</ele>
        <time>2018-10-03T11:59:30Z</time>
      </trkpt>
      <trkpt lat="49.61347" lon="4.96418">
        <ele>231.33</ele>
        <time>2018-10-03T11:59:46Z</time>
      </trkpt>
      <trkpt lat="49.61354" lon="4.96439">
        <ele>228.93</ele>
        <time>2018-10-03T12:00:02Z</time>
      </trkpt>
      <trkpt lat="49.61361" lon="4.96459">
        <ele>224.61</ele>
        <time>2018-10-03T12:00:18Z</time>
      </trkpt>
      <trkpt lat="49.61365" lon="4.9648">
        <ele>221.72</ele>
        <time>2018-10-03T12:00:33Z</time>
      </trkpt>
      <trkpt lat="49.61368" lon="4.96498">
        <ele>221.72</ele>
        <time>2018-10-03T12:00:48Z</time>
      </trkpt>
      <trkpt lat="49.61372" lon="4.96514">
        <ele>221.72</ele>
        <time>2018-10-03T12:01:04Z</time>
      </trkpt>
      <trkpt lat="49.61379" lon="4.9654">
        <ele>221.24</ele>
        <time>2018-10-03T12:01:19Z</time>
      </trkpt>
      <trkpt lat="49.61388" lon="4.96565">
        <ele>224.12</ele>
        <time>2018-10-03T12:01:36Z</time>
      </trkpt>
      <trkpt lat="49.61394" lon="4.96593">
        <ele>231.33</ele>
        <time>2018-10-03T12:01:51Z</time>
      </trkpt>
      <trkpt lat="49.6139" lon="4.96612">
        <ele>232.78</ele>
        <time>2018-10-03T12:02:10Z</time>
      </trkpt>
      <trkpt lat="49.61383" lon="4.96628">
        <ele>239.99</ele>
        <time>2018-10-03T12:02:23Z</time>
      </trkpt>
      <trkpt lat="49.6137" lon="4.96639">
        <ele>243.83</ele>
        <time>2018-10-03T12:02:38Z</time>
      </trkpt>
      <trkpt lat="49.6136" lon="4.96653">
        <ele>250.08</ele>
        <time>2018-10-03T12:02:54Z</time>
      </trkpt>
      <trkpt lat="49.61349" lon="4.96672">
        <ele>254.89</ele>
        <time>2018-10-03T12:03:09Z</time>
      </trkpt>
      <trkpt lat="49.61346" lon="4.96681">
        <ele>256.81</ele>
        <time>2018-10-03T12:03:27Z</time>
      </trkpt>
      <trkpt lat="49.61346" lon="4.96683">
        <ele>257.29</ele>
        <time>2018-10-03T12:03:29Z</time>
      </trkpt>
      <trkpt lat="49.61338" lon="4.96702">
        <ele>260.65</ele>
        <time>2018-10-03T12:03:44Z</time>
      </trkpt>
      <trkpt lat="49.6133" lon="4.96726">
        <ele>266.9</ele>
        <time>2018-10-03T12:04:01Z</time>
      </trkpt>
      <trkpt lat="49.61322" lon="4.96747">
        <ele>271.23</ele>
        <time>2018-10-03T12:04:15Z</time>
      </trkpt>
      <trkpt lat="49.61311" lon="4.96764">
        <ele>275.56</ele>
        <time>2018-10-03T12:04:32Z</time>
      </trkpt>
      <trkpt lat="49.61297" lon="4.96773">
        <ele>277</ele>
        <time>2018-10-03T12:04:47Z</time>
      </trkpt>
      <trkpt lat="49.61279" lon="4.96781">
        <ele>276.52</ele>
        <time>2018-10-03T12:05:04Z</time>
      </trkpt>
      <trkpt lat="49.61267" lon="4.96788">
        <ele>277.96</ele>
        <time>2018-10-03T12:05:19Z</time>
      </trkpt>
      <trkpt lat="49.61267" lon="4.96788">
        <ele>278.44</ele>
        <time>2018-10-03T12:05:20Z</time>
      </trkpt>
      <trkpt lat="49.61253" lon="4.9679">
        <ele>280.36</ele>
        <time>2018-10-03T12:05:34Z</time>
      </trkpt>
      <trkpt lat="49.61246" lon="4.96792">
        <ele>280.36</ele>
        <time>2018-10-03T12:05:41Z</time>
      </trkpt>
      <trkpt lat="49.6123" lon="4.96796">
        <ele>280.84</ele>
        <time>2018-10-03T12:05:54Z</time>
      </trkpt>
      <trkpt lat="49.61225" lon="4.96797">
        <ele>281.32</ele>
        <time>2018-10-03T12:05:58Z</time>
      </trkpt>
      <trkpt lat="49.6121" lon="4.96803">
        <ele>280.36</ele>
        <time>2018-10-03T12:06:13Z</time>
      </trkpt>
      <trkpt lat="49.61195" lon="4.96808">
        <ele>281.32</ele>
        <time>2018-10-03T12:06:26Z</time>
      </trkpt>
      <trkpt lat="49.61178" lon="4.96813">
        <ele>282.28</ele>
        <time>2018-10-03T12:06:42Z</time>
      </trkpt>
      <trkpt lat="49.61161" lon="4.96819">
        <ele>284.69</ele>
        <time>2018-10-03T12:06:57Z</time>
      </trkpt>
      <trkpt lat="49.61146" lon="4.96825">
        <ele>288.05</ele>
        <time>2018-10-03T12:07:12Z</time>
      </trkpt>
      <trkpt lat="49.61132" lon="4.96832">
        <ele>288.53</ele>
        <time>2018-10-03T12:07:28Z</time>
      </trkpt>
      <trkpt lat="49.61127" lon="4.96849">
        <ele>288.05</ele>
        <time>2018-10-03T12:07:43Z</time>
      </trkpt>
      <trkpt lat="49.61125" lon="4.96855">
        <ele>287.57</ele>
        <time>2018-10-03T12:07:48Z</time>
      </trkpt>
      <trkpt lat="49.61124" lon="4.96876">
        <ele>286.13</ele>
        <time>2018-10-03T12:08:00Z</time>
      </trkpt>
      <trkpt lat="49.6112" lon="4.96906">
        <ele>285.65</ele>
        <time>2018-10-03T12:08:17Z</time>
      </trkpt>
      <trkpt lat="49.6112" lon="4.96922">
        <ele>285.17</ele>
        <time>2018-10-03T12:08:31Z</time>
      </trkpt>
      <trkpt lat="49.61118" lon="4.96946">
        <ele>284.21</ele>
        <time>2018-10-03T12:08:44Z</time>
      </trkpt>
      <trkpt lat="49.61116" lon="4.96974">
        <ele>284.69</ele>
        <time>2018-10-03T12:08:58Z</time>
      </trkpt>
      <trkpt lat="49.61114" lon="4.96997">
        <ele>285.65</ele>
        <time>2018-10-03T12:09:11Z</time>
      </trkpt>
      <trkpt lat="49.61113" lon="4.97024">
        <ele>288.05</ele>
        <time>2018-10-03T12:09:25Z</time>
      </trkpt>
      <trkpt lat="49.6111" lon="4.97054">
        <ele>288.53</ele>
        <time>2018-10-03T12:09:40Z</time>
      </trkpt>
      <trkpt lat="49.6111" lon="4.97085">
        <ele>288.53</ele>
        <time>2018-10-03T12:09:53Z</time>
      </trkpt>
      <trkpt lat="49.61109" lon="4.97101">
        <ele>286.13</ele>
        <time>2018-10-03T12:10:04Z</time>
      </trkpt>
      <trkpt lat="49.61108" lon="4.97128">
        <ele>285.17</ele>
        <time>2018-10-03T12:10:19Z</time>
      </trkpt>
      <trkpt lat="49.61109" lon="4.97156">
        <ele>285.65</ele>
        <time>2018-10-03T12:10:33Z</time>
      </trkpt>
      <trkpt lat="49.61108" lon="4.97183">
        <ele>284.21</ele>
        <time>2018-10-03T12:10:50Z</time>
      </trkpt>
      <trkpt lat="49.61108" lon="4.97202">
        <ele>281.8</ele>
        <time>2018-10-03T12:11:04Z</time>
      </trkpt>
      <trkpt lat="49.61107" lon="4.9723">
        <ele>281.8</ele>
        <time>2018-10-03T12:11:20Z</time>
      </trkpt>
      <trkpt lat="49.61107" lon="4.97253">
        <ele>284.21</ele>
        <time>2018-10-03T12:11:33Z</time>
      </trkpt>
      <trkpt lat="49.61106" lon="4.97274">
        <ele>288.05</ele>
        <time>2018-10-03T12:11:43Z</time>
      </trkpt>
      <trkpt lat="49.61105" lon="4.97302">
        <ele>291.9</ele>
        <time>2018-10-03T12:11:58Z</time>
      </trkpt>
      <trkpt lat="49.61104" lon="4.97328">
        <ele>289.01</ele>
        <time>2018-10-03T12:12:13Z</time>
      </trkpt>
      <trkpt lat="49.61107" lon="4.9735">
        <ele>285.17</ele>
        <time>2018-10-03T12:12:30Z</time>
      </trkpt>
      <trkpt lat="49.61106" lon="4.97357">
        <ele>284.21</ele>
        <time>2018-10-03T12:12:35Z</time>
      </trkpt>
      <trkpt lat="49.61104" lon="4.97375">
        <ele>285.17</ele>
        <time>2018-10-03T12:12:44Z</time>
      </trkpt>
      <trkpt lat="49.61104" lon="4.97402">
        <ele>287.09</ele>
        <time>2018-10-03T12:12:59Z</time>
      </trkpt>
      <trkpt lat="49.61104" lon="4.97427">
        <ele>288.05</ele>
        <time>2018-10-03T12:13:14Z</time>
      </trkpt>
      <trkpt lat="49.61104" lon="4.97445">
        <ele>289.01</ele>
        <time>2018-10-03T12:13:24Z</time>
      </trkpt>
      <trkpt lat="49.61103" lon="4.97473">
        <ele>290.94</ele>
        <time>2018-10-03T12:13:38Z</time>
      </trkpt>
      <trkpt lat="49.611" lon="4.97499">
        <ele>292.38</ele>
        <time>2018-10-03T12:13:52Z</time>
      </trkpt>
      <trkpt lat="49.611" lon="4.97529">
        <ele>293.34</ele>
        <time>2018-10-03T12:14:06Z</time>
      </trkpt>
      <trkpt lat="49.61099" lon="4.97552">
        <ele>290.46</ele>
        <time>2018-10-03T12:14:21Z</time>
      </trkpt>
      <trkpt lat="49.61097" lon="4.97573">
        <ele>290.94</ele>
        <time>2018-10-03T12:14:34Z</time>
      </trkpt>
      <trkpt lat="49.61097" lon="4.97577">
        <ele>291.42</ele>
        <time>2018-10-03T12:14:41Z</time>
      </trkpt>
      <trkpt lat="49.61098" lon="4.97586">
        <ele>291.9</ele>
        <time>2018-10-03T12:14:46Z</time>
      </trkpt>
      <trkpt lat="49.61097" lon="4.97615">
        <ele>292.86</ele>
        <time>2018-10-03T12:15:01Z</time>
      </trkpt>
      <trkpt lat="49.61097" lon="4.97632">
        <ele>294.78</ele>
        <time>2018-10-03T12:15:14Z</time>
      </trkpt>
      <trkpt lat="49.61097" lon="4.97661">
        <ele>294.78</ele>
        <time>2018-10-03T12:15:31Z</time>
      </trkpt>
      <trkpt lat="49.61094" lon="4.97687">
        <ele>295.26</ele>
        <time>2018-10-03T12:15:44Z</time>
      </trkpt>
      <trkpt lat="49.61095" lon="4.97694">
        <ele>295.74</ele>
        <time>2018-10-03T12:15:48Z</time>
      </trkpt>
      <trkpt lat="49.61096" lon="4.9772">
        <ele>296.22</ele>
        <time>2018-10-03T12:16:03Z</time>
      </trkpt>
      <trkpt lat="49.61097" lon="4.97752">
        <ele>299.59</ele>
        <time>2018-10-03T12:16:17Z</time>
      </trkpt>
      <trkpt lat="49.61095" lon="4.97779">
        <ele>303.91</ele>
        <time>2018-10-03T12:16:29Z</time>
      </trkpt>
      <trkpt lat="49.61094" lon="4.97798">
        <ele>305.84</ele>
        <time>2018-10-03T12:16:41Z</time>
      </trkpt>
      <trkpt lat="49.61094" lon="4.97836">
        <ele>310.64</ele>
        <time>2018-10-03T12:16:57Z</time>
      </trkpt>
      <trkpt lat="49.61092" lon="4.97846">
        <ele>309.2</ele>
        <time>2018-10-03T12:17:06Z</time>
      </trkpt>
      <trkpt lat="49.6109" lon="4.97873">
        <ele>303.91</ele>
        <time>2018-10-03T12:17:24Z</time>
      </trkpt>
      <trkpt lat="49.61089" lon="4.97902">
        <ele>301.99</ele>
        <time>2018-10-03T12:17:40Z</time>
      </trkpt>
      <trkpt lat="49.61088" lon="4.97926">
        <ele>298.15</ele>
        <time>2018-10-03T12:17:57Z</time>
      </trkpt>
      <trkpt lat="49.61088" lon="4.97927">
        <ele>298.15</ele>
        <time>2018-10-03T12:17:58Z</time>
      </trkpt>
      <trkpt lat="49.61088" lon="4.97952">
        <ele>297.67</ele>
        <time>2018-10-03T12:18:15Z</time>
      </trkpt>
      <trkpt lat="49.6108" lon="4.97968">
        <ele>297.18</ele>
        <time>2018-10-03T12:18:27Z</time>
      </trkpt>
      <trkpt lat="49.61063" lon="4.97993">
        <ele>299.59</ele>
        <time>2018-10-03T12:18:44Z</time>
      </trkpt>
      <trkpt lat="49.61061" lon="4.97997">
        <ele>300.07</ele>
        <time>2018-10-03T12:18:47Z</time>
      </trkpt>
      <trkpt lat="49.6105" lon="4.98017">
        <ele>301.03</ele>
        <time>2018-10-03T12:19:04Z</time>
      </trkpt>
      <trkpt lat="49.61039" lon="4.98037">
        <ele>301.03</ele>
        <time>2018-10-03T12:19:18Z</time>
      </trkpt>
      <trkpt lat="49.61032" lon="4.98045">
        <ele>301.03</ele>
        <time>2018-10-03T12:19:26Z</time>
      </trkpt>
      <trkpt lat="49.61028" lon="4.9805">
        <ele>301.03</ele>
        <time>2018-10-03T12:19:31Z</time>
      </trkpt>
      <trkpt lat="49.61017" lon="4.98071">
        <ele>299.59</ele>
        <time>2018-10-03T12:19:46Z</time>
      </trkpt>
      <trkpt lat="49.61006" lon="4.98083">
        <ele>301.99</ele>
        <time>2018-10-03T12:20:03Z</time>
      </trkpt>
      <trkpt lat="49.60995" lon="4.98072">
        <ele>302.95</ele>
        <time>2018-10-03T12:20:16Z</time>
      </trkpt>
      <trkpt lat="49.60993" lon="4.98069">
        <ele>303.43</ele>
        <time>2018-10-03T12:20:18Z</time>
      </trkpt>
      <trkpt lat="49.60981" lon="4.98053">
        <ele>306.32</ele>
        <time>2018-10-03T12:20:33Z</time>
      </trkpt>
      <trkpt lat="49.60969" lon="4.98041">
        <ele>305.36</ele>
        <time>2018-10-03T12:20:45Z</time>
      </trkpt>
      <trkpt lat="49.60959" lon="4.98028">
        <ele>307.28</ele>
        <time>2018-10-03T12:20:59Z</time>
      </trkpt>
      <trkpt lat="49.60949" lon="4.98009">
        <ele>306.32</ele>
        <time>2018-10-03T12:21:13Z</time>
      </trkpt>
      <trkpt lat="49.60938" lon="4.97993">
        <ele>305.84</ele>
        <time>2018-10-03T12:21:26Z</time>
      </trkpt>
      <trkpt lat="49.60926" lon="4.97973">
        <ele>305.36</ele>
        <time>2018-10-03T12:21:40Z</time>
      </trkpt>
      <trkpt lat="49.6092" lon="4.97966">
        <ele>305.36</ele>
        <time>2018-10-03T12:21:47Z</time>
      </trkpt>
      <trkpt lat="49.60908" lon="4.97944">
        <ele>305.36</ele>
        <time>2018-10-03T12:22:02Z</time>
      </trkpt>
      <trkpt lat="49.60897" lon="4.97926">
        <ele>304.88</ele>
        <time>2018-10-03T12:22:18Z</time>
      </trkpt>
      <trkpt lat="49.60888" lon="4.9791">
        <ele>302.95</ele>
        <time>2018-10-03T12:22:32Z</time>
      </trkpt>
      <trkpt lat="49.60878" lon="4.97891">
        <ele>303.43</ele>
        <time>2018-10-03T12:22:45Z</time>
      </trkpt>
      <trkpt lat="49.6087" lon="4.97873">
        <ele>301.03</ele>
        <time>2018-10-03T12:22:58Z</time>
      </trkpt>
      <trkpt lat="49.60861" lon="4.97853">
        <ele>299.11</ele>
        <time>2018-10-03T12:23:12Z</time>
      </trkpt>
      <trkpt lat="49.60856" lon="4.97837">
        <ele>297.67</ele>
        <time>2018-10-03T12:23:24Z</time>
      </trkpt>
      <trkpt lat="49.60851" lon="4.97819">
        <ele>294.3</ele>
        <time>2018-10-03T12:23:40Z</time>
      </trkpt>
      <trkpt lat="49.60848" lon="4.97803">
        <ele>292.86</ele>
        <time>2018-10-03T12:23:51Z</time>
      </trkpt>
      <trkpt lat="49.60841" lon="4.97778">
        <ele>291.9</ele>
        <time>2018-10-03T12:24:05Z</time>
      </trkpt>
      <trkpt lat="49.60837" lon="4.97759">
        <ele>288.53</ele>
        <time>2018-10-03T12:24:18Z</time>
      </trkpt>
      <trkpt lat="49.60833" lon="4.97737">
        <ele>285.65</ele>
        <time>2018-10-03T12:24:32Z</time>
      </trkpt>
      <trkpt lat="49.60828" lon="4.97714">
        <ele>283.25</ele>
        <time>2018-10-03T12:24:47Z</time>
      </trkpt>
      <trkpt lat="49.60823" lon="4.97688">
        <ele>280.36</ele>
        <time>2018-10-03T12:25:02Z</time>
      </trkpt>
      <trkpt lat="49.60821" lon="4.97674">
        <ele>277.96</ele>
        <time>2018-10-03T12:25:14Z</time>
      </trkpt>
      <trkpt lat="49.60819" lon="4.9766">
        <ele>277</ele>
        <time>2018-10-03T12:25:28Z</time>
      </trkpt>
      <trkpt lat="49.60812" lon="4.97638">
        <ele>277.96</ele>
        <time>2018-10-03T12:25:41Z</time>
      </trkpt>
      <trkpt lat="49.60807" lon="4.9762">
        <ele>281.32</ele>
        <time>2018-10-03T12:25:53Z</time>
      </trkpt>
      <trkpt lat="49.60802" lon="4.97603">
        <ele>280.84</ele>
        <time>2018-10-03T12:26:03Z</time>
      </trkpt>
      <trkpt lat="49.60797" lon="4.97585">
        <ele>277.48</ele>
        <time>2018-10-03T12:26:18Z</time>
      </trkpt>
      <trkpt lat="49.60791" lon="4.97568">
        <ele>272.19</ele>
        <time>2018-10-03T12:26:33Z</time>
      </trkpt>
      <trkpt lat="49.60789" lon="4.97556">
        <ele>268.83</ele>
        <time>2018-10-03T12:26:46Z</time>
      </trkpt>
      <trkpt lat="49.60782" lon="4.97542">
        <ele>268.35</ele>
        <time>2018-10-03T12:26:59Z</time>
      </trkpt>
      <trkpt lat="49.60779" lon="4.97536">
        <ele>269.31</ele>
        <time>2018-10-03T12:27:17Z</time>
      </trkpt>
      <trkpt lat="49.60771" lon="4.97509">
        <ele>266.9</ele>
        <time>2018-10-03T12:27:33Z</time>
      </trkpt>
      <trkpt lat="49.60768" lon="4.97492">
        <ele>263.06</ele>
        <time>2018-10-03T12:27:46Z</time>
      </trkpt>
      <trkpt lat="49.60765" lon="4.97479">
        <ele>262.1</ele>
        <time>2018-10-03T12:27:55Z</time>
      </trkpt>
      <trkpt lat="49.60757" lon="4.97452">
        <ele>261.14</ele>
        <time>2018-10-03T12:28:11Z</time>
      </trkpt>
      <trkpt lat="49.6075" lon="4.97432">
        <ele>264.02</ele>
        <time>2018-10-03T12:28:25Z</time>
      </trkpt>
      <trkpt lat="49.60739" lon="4.9741">
        <ele>262.1</ele>
        <time>2018-10-03T12:28:40Z</time>
      </trkpt>
      <trkpt lat="49.60733" lon="4.97393">
        <ele>260.65</ele>
        <time>2018-10-03T12:28:52Z</time>
      </trkpt>
      <trkpt lat="49.60724" lon="4.97362">
        <ele>257.77</ele>
        <time>2018-10-03T12:29:10Z</time>
      </trkpt>
      <trkpt lat="49.60718" lon="4.97339">
        <ele>254.89</ele>
        <time>2018-10-03T12:29:25Z</time>
      </trkpt>
      <trkpt lat="49.60709" lon="4.97309">
        <ele>253.44</ele>
        <time>2018-10-03T12:29:44Z</time>
      </trkpt>
      <trkpt lat="49.60701" lon="4.97285">
        <ele>251.52</ele>
        <time>2018-10-03T12:30:00Z</time>
      </trkpt>
      <trkpt lat="49.60694" lon="4.97255">
        <ele>248.16</ele>
        <time>2018-10-03T12:30:18Z</time>
      </trkpt>
      <trkpt lat="49.60688" lon="4.97226">
        <ele>247.2</ele>
        <time>2018-10-03T12:30:37Z</time>
      </trkpt>
      <trkpt lat="49.60687" lon="4.97219">
        <ele>246.72</ele>
        <time>2018-10-03T12:30:41Z</time>
      </trkpt>
      <trkpt lat="49.60685" lon="4.97189">
        <ele>245.27</ele>
        <time>2018-10-03T12:30:58Z</time>
      </trkpt>
      <trkpt lat="49.60685" lon="4.97153">
        <ele>244.31</ele>
        <time>2018-10-03T12:31:19Z</time>
      </trkpt>
      <trkpt lat="49.60685" lon="4.97119">
        <ele>243.35</ele>
        <time>2018-10-03T12:31:38Z</time>
      </trkpt>
      <trkpt lat="49.60686" lon="4.97084">
        <ele>241.91</ele>
        <time>2018-10-03T12:31:59Z</time>
      </trkpt>
      <trkpt lat="49.60687" lon="4.97056">
        <ele>242.87</ele>
        <time>2018-10-03T12:32:14Z</time>
      </trkpt>
      <trkpt lat="49.60687" lon="4.9703">
        <ele>240.47</ele>
        <time>2018-10-03T12:32:30Z</time>
      </trkpt>
      <trkpt lat="49.60687" lon="4.97009">
        <ele>239.51</ele>
        <time>2018-10-03T12:32:45Z</time>
      </trkpt>
      <trkpt lat="49.60688" lon="4.96993">
        <ele>239.02</ele>
        <time>2018-10-03T12:32:55Z</time>
      </trkpt>
      <trkpt lat="49.60686" lon="4.96973">
        <ele>239.51</ele>
        <time>2018-10-03T12:33:08Z</time>
      </trkpt>
      <trkpt lat="49.60684" lon="4.96943">
        <ele>237.1</ele>
        <time>2018-10-03T12:33:24Z</time>
      </trkpt>
      <trkpt lat="49.60681" lon="4.9692">
        <ele>235.18</ele>
        <time>2018-10-03T12:33:39Z</time>
      </trkpt>
      <trkpt lat="49.60676" lon="4.96893">
        <ele>232.78</ele>
        <time>2018-10-03T12:33:56Z</time>
      </trkpt>
      <trkpt lat="49.6067" lon="4.96871">
        <ele>228.93</ele>
        <time>2018-10-03T12:34:12Z</time>
      </trkpt>
      <trkpt lat="49.60663" lon="4.96846">
        <ele>228.93</ele>
        <time>2018-10-03T12:34:27Z</time>
      </trkpt>
      <trkpt lat="49.60656" lon="4.96825">
        <ele>227.01</ele>
        <time>2018-10-03T12:34:41Z</time>
      </trkpt>
      <trkpt lat="49.60648" lon="4.96803">
        <ele>224.12</ele>
        <time>2018-10-03T12:34:57Z</time>
      </trkpt>
      <trkpt lat="49.6064" lon="4.9678">
        <ele>220.76</ele>
        <time>2018-10-03T12:35:12Z</time>
      </trkpt>
      <trkpt lat="49.6063" lon="4.9675">
        <ele>217.88</ele>
        <time>2018-10-03T12:35:32Z</time>
      </trkpt>
      <trkpt lat="49.60621" lon="4.96716">
        <ele>214.99</ele>
        <time>2018-10-03T12:35:53Z</time>
      </trkpt>
      <trkpt lat="49.6061" lon="4.96682">
        <ele>214.51</ele>
        <time>2018-10-03T12:36:13Z</time>
      </trkpt>
      <trkpt lat="49.60602" lon="4.9665">
        <ele>213.55</ele>
        <time>2018-10-03T12:36:32Z</time>
      </trkpt>
      <trkpt lat="49.60594" lon="4.96621">
        <ele>214.51</ele>
        <time>2018-10-03T12:36:49Z</time>
      </trkpt>
      <trkpt lat="49.60587" lon="4.96591">
        <ele>214.51</ele>
        <time>2018-10-03T12:37:06Z</time>
      </trkpt>
      <trkpt lat="49.60581" lon="4.96561">
        <ele>214.51</ele>
        <time>2018-10-03T12:37:23Z</time>
      </trkpt>
      <trkpt lat="49.60581" lon="4.96558">
        <ele>214.51</ele>
        <time>2018-10-03T12:37:25Z</time>
      </trkpt>
      <trkpt lat="49.60574" lon="4.96525">
        <ele>214.99</ele>
        <time>2018-10-03T12:37:43Z</time>
      </trkpt>
      <trkpt lat="49.60569" lon="4.96497">
        <ele>214.99</ele>
        <time>2018-10-03T12:37:59Z</time>
      </trkpt>
      <trkpt lat="49.60564" lon="4.96466">
        <ele>214.99</ele>
        <time>2018-10-03T12:38:16Z</time>
      </trkpt>
      <trkpt lat="49.6056" lon="4.96444">
        <ele>214.51</ele>
        <time>2018-10-03T12:38:30Z</time>
      </trkpt>
      <trkpt lat="49.60557" lon="4.96417">
        <ele>213.55</ele>
        <time>2018-10-03T12:38:46Z</time>
      </trkpt>
      <trkpt lat="49.60555" lon="4.96388">
        <ele>214.03</ele>
        <time>2018-10-03T12:39:01Z</time>
      </trkpt>
      <trkpt lat="49.60555" lon="4.96383">
        <ele>214.51</ele>
        <time>2018-10-03T12:39:04Z</time>
      </trkpt>
      <trkpt lat="49.60554" lon="4.96355">
        <ele>213.55</ele>
        <time>2018-10-03T12:39:20Z</time>
      </trkpt>
      <trkpt lat="49.60556" lon="4.96324">
        <ele>215.47</ele>
        <time>2018-10-03T12:39:36Z</time>
      </trkpt>
      <trkpt lat="49.60556" lon="4.96281">
        <ele>214.51</ele>
        <time>2018-10-03T12:39:56Z</time>
      </trkpt>
      <trkpt lat="49.60554" lon="4.96243">
        <ele>214.51</ele>
        <time>2018-10-03T12:40:16Z</time>
      </trkpt>
      <trkpt lat="49.60551" lon="4.96213">
        <ele>216.43</ele>
        <time>2018-10-03T12:40:32Z</time>
      </trkpt>
      <trkpt lat="49.60546" lon="4.9618">
        <ele>216.43</ele>
        <time>2018-10-03T12:40:50Z</time>
      </trkpt>
      <trkpt lat="49.60539" lon="4.96147">
        <ele>216.43</ele>
        <time>2018-10-03T12:41:09Z</time>
      </trkpt>
      <trkpt lat="49.60531" lon="4.96121">
        <ele>217.4</ele>
        <time>2018-10-03T12:41:25Z</time>
      </trkpt>
      <trkpt lat="49.60525" lon="4.96101">
        <ele>215.47</ele>
        <time>2018-10-03T12:41:42Z</time>
      </trkpt>
      <trkpt lat="49.60513" lon="4.96077">
        <ele>214.99</ele>
        <time>2018-10-03T12:41:58Z</time>
      </trkpt>
      <trkpt lat="49.60506" lon="4.96058">
        <ele>214.03</ele>
        <time>2018-10-03T12:42:12Z</time>
      </trkpt>
      <trkpt lat="49.60494" lon="4.96037">
        <ele>211.63</ele>
        <time>2018-10-03T12:42:29Z</time>
      </trkpt>
      <trkpt lat="49.60476" lon="4.96012">
        <ele>209.7</ele>
        <time>2018-10-03T12:42:50Z</time>
      </trkpt>
      <trkpt lat="49.60463" lon="4.95984">
        <ele>209.22</ele>
        <time>2018-10-03T12:43:08Z</time>
      </trkpt>
      <trkpt lat="49.60446" lon="4.95968">
        <ele>208.26</ele>
        <time>2018-10-03T12:43:26Z</time>
      </trkpt>
      <trkpt lat="49.60431" lon="4.95952">
        <ele>205.38</ele>
        <time>2018-10-03T12:43:43Z</time>
      </trkpt>
      <trkpt lat="49.60408" lon="4.95933">
        <ele>203.46</ele>
        <time>2018-10-03T12:44:04Z</time>
      </trkpt>
      <trkpt lat="49.6039" lon="4.95923">
        <ele>201.53</ele>
        <time>2018-10-03T12:44:23Z</time>
      </trkpt>
      <trkpt lat="49.60373" lon="4.95909">
        <ele>198.65</ele>
        <time>2018-10-03T12:44:40Z</time>
      </trkpt>
      <trkpt lat="49.6036" lon="4.95884">
        <ele>200.57</ele>
        <time>2018-10-03T12:44:58Z</time>
      </trkpt>
      <trkpt lat="49.60347" lon="4.95856">
        <ele>199.61</ele>
        <time>2018-10-03T12:45:18Z</time>
      </trkpt>
      <trkpt lat="49.6034" lon="4.95845">
        <ele>197.69</ele>
        <time>2018-10-03T12:45:31Z</time>
      </trkpt>
      <trkpt lat="49.60327" lon="4.95834">
        <ele>195.77</ele>
        <time>2018-10-03T12:45:46Z</time>
      </trkpt>
      <trkpt lat="49.60324" lon="4.95819">
        <ele>192.88</ele>
        <time>2018-10-03T12:46:00Z</time>
      </trkpt>
      <trkpt lat="49.60321" lon="4.95811">
        <ele>193.36</ele>
        <time>2018-10-03T12:46:15Z</time>
      </trkpt>
      <trkpt lat="49.60321" lon="4.95793">
        <ele>192.88</ele>
        <time>2018-10-03T12:46:26Z</time>
      </trkpt>
      <trkpt lat="49.60324" lon="4.95756">
        <ele>193.84</ele>
        <time>2018-10-03T12:46:44Z</time>
      </trkpt>
      <trkpt lat="49.60327" lon="4.95731">
        <ele>194.8</ele>
        <time>2018-10-03T12:46:59Z</time>
      </trkpt>
      <trkpt lat="49.60327" lon="4.95709">
        <ele>193.36</ele>
        <time>2018-10-03T12:47:13Z</time>
      </trkpt>
      <trkpt lat="49.60328" lon="4.95675">
        <ele>190</ele>
        <time>2018-10-03T12:47:32Z</time>
      </trkpt>
      <trkpt lat="49.60323" lon="4.95656">
        <ele>187.59</ele>
        <time>2018-10-03T12:47:45Z</time>
      </trkpt>
      <trkpt lat="49.60305" lon="4.95637">
        <ele>185.19</ele>
        <time>2018-10-03T12:48:04Z</time>
      </trkpt>
      <trkpt lat="49.60288" lon="4.95616">
        <ele>183.75</ele>
        <time>2018-10-03T12:48:22Z</time>
      </trkpt>
      <trkpt lat="49.60269" lon="4.95596">
        <ele>185.67</ele>
        <time>2018-10-03T12:48:41Z</time>
      </trkpt>
      <trkpt lat="49.60254" lon="4.95581">
        <ele>183.75</ele>
        <time>2018-10-03T12:48:58Z</time>
      </trkpt>
      <trkpt lat="49.60236" lon="4.95581">
        <ele>178.46</ele>
        <time>2018-10-03T12:49:16Z</time>
      </trkpt>
      <trkpt lat="49.60229" lon="4.95579">
        <ele>177.02</ele>
        <time>2018-10-03T12:49:23Z</time>
      </trkpt>
      <trkpt lat="49.60215" lon="4.95574">
        <ele>183.75</ele>
        <time>2018-10-03T12:49:36Z</time>
      </trkpt>
      <trkpt lat="49.60214" lon="4.95573">
        <ele>183.75</ele>
        <time>2018-10-03T12:49:37Z</time>
      </trkpt>
      <trkpt lat="49.60201" lon="4.9557">
        <ele>184.23</ele>
        <time>2018-10-03T12:49:48Z</time>
      </trkpt>
      <trkpt lat="49.60184" lon="4.95571">
        <ele>180.38</ele>
        <time>2018-10-03T12:50:04Z</time>
      </trkpt>
      <trkpt lat="49.60163" lon="4.95575">
        <ele>179.9</ele>
        <time>2018-10-03T12:50:22Z</time>
      </trkpt>
      <trkpt lat="49.60139" lon="4.95579">
        <ele>179.42</ele>
        <time>2018-10-03T12:50:42Z</time>
      </trkpt>
      <trkpt lat="49.60122" lon="4.95579">
        <ele>175.1</ele>
        <time>2018-10-03T12:50:57Z</time>
      </trkpt>
      <trkpt lat="49.60102" lon="4.95567">
        <ele>178.94</ele>
        <time>2018-10-03T12:51:15Z</time>
      </trkpt>
      <trkpt lat="49.60082" lon="4.95557">
        <ele>181.83</ele>
        <time>2018-10-03T12:51:32Z</time>
      </trkpt>
      <trkpt lat="49.60063" lon="4.95549">
        <ele>177.98</ele>
        <time>2018-10-03T12:51:50Z</time>
      </trkpt>
      <trkpt lat="49.60044" lon="4.95538">
        <ele>177.98</ele>
        <time>2018-10-03T12:52:05Z</time>
      </trkpt>
      <trkpt lat="49.60025" lon="4.95525">
        <ele>178.46</ele>
        <time>2018-10-03T12:52:22Z</time>
      </trkpt>
      <trkpt lat="49.60001" lon="4.95511">
        <ele>179.9</ele>
        <time>2018-10-03T12:52:42Z</time>
      </trkpt>
      <trkpt lat="49.5998" lon="4.95499">
        <ele>180.87</ele>
        <time>2018-10-03T12:53:01Z</time>
      </trkpt>
      <trkpt lat="49.59961" lon="4.95485">
        <ele>181.35</ele>
        <time>2018-10-03T12:53:18Z</time>
      </trkpt>
      <trkpt lat="49.59941" lon="4.95479">
        <ele>178.94</ele>
        <time>2018-10-03T12:53:38Z</time>
      </trkpt>
      <trkpt lat="49.59919" lon="4.95469">
        <ele>177.98</ele>
        <time>2018-10-03T12:53:57Z</time>
      </trkpt>
      <trkpt lat="49.59896" lon="4.9547">
        <ele>183.27</ele>
        <time>2018-10-03T12:54:15Z</time>
      </trkpt>
      <trkpt lat="49.59877" lon="4.95482">
        <ele>186.15</ele>
        <time>2018-10-03T12:54:32Z</time>
      </trkpt>
      <trkpt lat="49.59875" lon="4.95482">
        <ele>186.15</ele>
        <time>2018-10-03T12:54:33Z</time>
      </trkpt>
      <trkpt lat="49.5987" lon="4.95482">
        <ele>187.11</ele>
        <time>2018-10-03T12:54:37Z</time>
      </trkpt>
      <trkpt lat="49.59853" lon="4.95476">
        <ele>189.04</ele>
        <time>2018-10-03T12:54:55Z</time>
      </trkpt>
      <trkpt lat="49.5985" lon="4.95476">
        <ele>189.04</ele>
        <time>2018-10-03T12:55:13Z</time>
      </trkpt>
      <trkpt lat="49.59832" lon="4.95471">
        <ele>190</ele>
        <time>2018-10-03T12:55:29Z</time>
      </trkpt>
      <trkpt lat="49.59813" lon="4.9547">
        <ele>190.96</ele>
        <time>2018-10-03T12:55:45Z</time>
      </trkpt>
      <trkpt lat="49.5979" lon="4.95466">
        <ele>192.4</ele>
        <time>2018-10-03T12:56:05Z</time>
      </trkpt>
      <trkpt lat="49.59775" lon="4.95466">
        <ele>193.84</ele>
        <time>2018-10-03T12:56:22Z</time>
      </trkpt>
      <trkpt lat="49.59772" lon="4.95466">
        <ele>193.84</ele>
        <time>2018-10-03T12:56:26Z</time>
      </trkpt>
      <trkpt lat="49.59766" lon="4.95466">
        <ele>193.84</ele>
        <time>2018-10-03T12:56:30Z</time>
      </trkpt>
      <trkpt lat="49.59742" lon="4.95461">
        <ele>194.32</ele>
        <time>2018-10-03T12:56:52Z</time>
      </trkpt>
      <trkpt lat="49.5972" lon="4.95459">
        <ele>195.28</ele>
        <time>2018-10-03T12:57:11Z</time>
      </trkpt>
      <trkpt lat="49.59701" lon="4.95457">
        <ele>194.32</ele>
        <time>2018-10-03T12:57:29Z</time>
      </trkpt>
      <trkpt lat="49.59683" lon="4.95454">
        <ele>195.77</ele>
        <time>2018-10-03T12:57:45Z</time>
      </trkpt>
      <trkpt lat="49.59661" lon="4.95454">
        <ele>199.13</ele>
        <time>2018-10-03T12:58:02Z</time>
      </trkpt>
      <trkpt lat="49.59638" lon="4.95453">
        <ele>201.53</ele>
        <time>2018-10-03T12:58:22Z</time>
      </trkpt>
      <trkpt lat="49.59628" lon="4.95445">
        <ele>201.53</ele>
        <time>2018-10-03T12:58:36Z</time>
      </trkpt>
      <trkpt lat="49.59604" lon="4.95435">
        <ele>204.42</ele>
        <time>2018-10-03T12:58:57Z</time>
      </trkpt>
      <trkpt lat="49.59581" lon="4.95432">
        <ele>205.38</ele>
        <time>2018-10-03T12:59:16Z</time>
      </trkpt>
      <trkpt lat="49.59562" lon="4.95431">
        <ele>207.3</ele>
        <time>2018-10-03T12:59:34Z</time>
      </trkpt>
      <trkpt lat="49.59544" lon="4.9543">
        <ele>209.7</ele>
        <time>2018-10-03T12:59:49Z</time>
      </trkpt>
      <trkpt lat="49.59535" lon="4.95422">
        <ele>210.67</ele>
        <time>2018-10-03T12:59:58Z</time>
      </trkpt>
      <trkpt lat="49.59533" lon="4.95412">
        <ele>211.15</ele>
        <time>2018-10-03T13:00:05Z</time>
      </trkpt>
      <trkpt lat="49.59537" lon="4.954">
        <ele>211.15</ele>
        <time>2018-10-03T13:00:13Z</time>
      </trkpt>
      <trkpt lat="49.59552" lon="4.9539">
        <ele>212.59</ele>
        <time>2018-10-03T13:00:28Z</time>
      </trkpt>
      <trkpt lat="49.59573" lon="4.95381">
        <ele>215.95</ele>
        <time>2018-10-03T13:00:47Z</time>
      </trkpt>
      <trkpt lat="49.59592" lon="4.95371">
        <ele>217.88</ele>
        <time>2018-10-03T13:01:03Z</time>
      </trkpt>
      <trkpt lat="49.59612" lon="4.9536">
        <ele>220.28</ele>
        <time>2018-10-03T13:01:23Z</time>
      </trkpt>
      <trkpt lat="49.59633" lon="4.95349">
        <ele>220.28</ele>
        <time>2018-10-03T13:01:43Z</time>
      </trkpt>
      <trkpt lat="49.59648" lon="4.9534">
        <ele>222.2</ele>
        <time>2018-10-03T13:02:00Z</time>
      </trkpt>
      <trkpt lat="49.59664" lon="4.95327">
        <ele>221.24</ele>
        <time>2018-10-03T13:02:16Z</time>
      </trkpt>
      <trkpt lat="49.5968" lon="4.95312">
        <ele>219.8</ele>
        <time>2018-10-03T13:02:34Z</time>
      </trkpt>
      <trkpt lat="49.59681" lon="4.95312">
        <ele>219.8</ele>
        <time>2018-10-03T13:02:35Z</time>
      </trkpt>
      <trkpt lat="49.59696" lon="4.953">
        <ele>219.32</ele>
        <time>2018-10-03T13:02:51Z</time>
      </trkpt>
      <trkpt lat="49.59711" lon="4.95288">
        <ele>219.8</ele>
        <time>2018-10-03T13:03:06Z</time>
      </trkpt>
      <trkpt lat="49.59727" lon="4.95277">
        <ele>222.68</ele>
        <time>2018-10-03T13:03:24Z</time>
      </trkpt>
      <trkpt lat="49.59743" lon="4.95265">
        <ele>225.09</ele>
        <time>2018-10-03T13:03:41Z</time>
      </trkpt>
      <trkpt lat="49.59757" lon="4.95251">
        <ele>224.61</ele>
        <time>2018-10-03T13:03:58Z</time>
      </trkpt>
      <trkpt lat="49.5976" lon="4.95248">
        <ele>224.12</ele>
        <time>2018-10-03T13:04:01Z</time>
      </trkpt>
      <trkpt lat="49.59773" lon="4.95235">
        <ele>225.09</ele>
        <time>2018-10-03T13:04:16Z</time>
      </trkpt>
      <trkpt lat="49.59792" lon="4.95219">
        <ele>228.45</ele>
        <time>2018-10-03T13:04:33Z</time>
      </trkpt>
      <trkpt lat="49.59805" lon="4.95203">
        <ele>226.05</ele>
        <time>2018-10-03T13:04:50Z</time>
      </trkpt>
      <trkpt lat="49.59817" lon="4.95192">
        <ele>226.53</ele>
        <time>2018-10-03T13:05:05Z</time>
      </trkpt>
      <trkpt lat="49.59832" lon="4.95179">
        <ele>227.01</ele>
        <time>2018-10-03T13:05:21Z</time>
      </trkpt>
      <trkpt lat="49.59846" lon="4.9517">
        <ele>228.45</ele>
        <time>2018-10-03T13:05:37Z</time>
      </trkpt>
      <trkpt lat="49.59864" lon="4.95164">
        <ele>228.45</ele>
        <time>2018-10-03T13:05:52Z</time>
      </trkpt>
      <trkpt lat="49.59882" lon="4.95161">
        <ele>230.37</ele>
        <time>2018-10-03T13:06:09Z</time>
      </trkpt>
      <trkpt lat="49.599" lon="4.95163">
        <ele>230.37</ele>
        <time>2018-10-03T13:06:25Z</time>
      </trkpt>
      <trkpt lat="49.59922" lon="4.95163">
        <ele>230.85</ele>
        <time>2018-10-03T13:06:43Z</time>
      </trkpt>
      <trkpt lat="49.59948" lon="4.95171">
        <ele>237.1</ele>
        <time>2018-10-03T13:07:03Z</time>
      </trkpt>
      <trkpt lat="49.59962" lon="4.95174">
        <ele>237.1</ele>
        <time>2018-10-03T13:07:19Z</time>
      </trkpt>
      <trkpt lat="49.59979" lon="4.9518">
        <ele>239.99</ele>
        <time>2018-10-03T13:07:34Z</time>
      </trkpt>
      <trkpt lat="49.59999" lon="4.95186">
        <ele>240.95</ele>
        <time>2018-10-03T13:07:52Z</time>
      </trkpt>
      <trkpt lat="49.60007" lon="4.95185">
        <ele>241.91</ele>
        <time>2018-10-03T13:08:06Z</time>
      </trkpt>
      <trkpt lat="49.60026" lon="4.95188">
        <ele>241.91</ele>
        <time>2018-10-03T13:08:21Z</time>
      </trkpt>
      <trkpt lat="49.60041" lon="4.95186">
        <ele>241.43</ele>
        <time>2018-10-03T13:08:35Z</time>
      </trkpt>
      <trkpt lat="49.60058" lon="4.95181">
        <ele>241.43</ele>
        <time>2018-10-03T13:08:51Z</time>
      </trkpt>
      <trkpt lat="49.60073" lon="4.95169">
        <ele>244.31</ele>
        <time>2018-10-03T13:09:05Z</time>
      </trkpt>
      <trkpt lat="49.60089" lon="4.9515">
        <ele>246.72</ele>
        <time>2018-10-03T13:09:22Z</time>
      </trkpt>
      <trkpt lat="49.60104" lon="4.95125">
        <ele>250.56</ele>
        <time>2018-10-03T13:09:42Z</time>
      </trkpt>
      <trkpt lat="49.60112" lon="4.95099">
        <ele>250.56</ele>
        <time>2018-10-03T13:10:01Z</time>
      </trkpt>
      <trkpt lat="49.60117" lon="4.95079">
        <ele>248.64</ele>
        <time>2018-10-03T13:10:14Z</time>
      </trkpt>
      <trkpt lat="49.60122" lon="4.95051">
        <ele>247.2</ele>
        <time>2018-10-03T13:10:31Z</time>
      </trkpt>
      <trkpt lat="49.60128" lon="4.95026">
        <ele>249.12</ele>
        <time>2018-10-03T13:10:46Z</time>
      </trkpt>
      <trkpt lat="49.60132" lon="4.94995">
        <ele>250.08</ele>
        <time>2018-10-03T13:11:03Z</time>
      </trkpt>
      <trkpt lat="49.60137" lon="4.94969">
        <ele>249.12</ele>
        <time>2018-10-03T13:11:20Z</time>
      </trkpt>
      <trkpt lat="49.6014" lon="4.94947">
        <ele>250.08</ele>
        <time>2018-10-03T13:11:32Z</time>
      </trkpt>
      <trkpt lat="49.60145" lon="4.94929">
        <ele>251.04</ele>
        <time>2018-10-03T13:11:43Z</time>
      </trkpt>
      <trkpt lat="49.60151" lon="4.94902">
        <ele>253.93</ele>
        <time>2018-10-03T13:11:59Z</time>
      </trkpt>
      <trkpt lat="49.60156" lon="4.94878">
        <ele>256.81</ele>
        <time>2018-10-03T13:12:13Z</time>
      </trkpt>
      <trkpt lat="49.60163" lon="4.94852">
        <ele>260.65</ele>
        <time>2018-10-03T13:12:30Z</time>
      </trkpt>
      <trkpt lat="49.60163" lon="4.94851">
        <ele>260.65</ele>
        <time>2018-10-03T13:12:31Z</time>
      </trkpt>
      <trkpt lat="49.60167" lon="4.94827">
        <ele>261.14</ele>
        <time>2018-10-03T13:12:46Z</time>
      </trkpt>
      <trkpt lat="49.60171" lon="4.94799">
        <ele>260.17</ele>
        <time>2018-10-03T13:13:03Z</time>
      </trkpt>
      <trkpt lat="49.60176" lon="4.94777">
        <ele>260.17</ele>
        <time>2018-10-03T13:13:18Z</time>
      </trkpt>
      <trkpt lat="49.60182" lon="4.94752">
        <ele>259.69</ele>
        <time>2018-10-03T13:13:34Z</time>
      </trkpt>
      <trkpt lat="49.60187" lon="4.94725">
        <ele>259.69</ele>
        <time>2018-10-03T13:13:52Z</time>
      </trkpt>
      <trkpt lat="49.60194" lon="4.94695">
        <ele>262.58</ele>
        <time>2018-10-03T13:14:10Z</time>
      </trkpt>
      <trkpt lat="49.60196" lon="4.94691">
        <ele>264.98</ele>
        <time>2018-10-03T13:14:25Z</time>
      </trkpt>
      <trkpt lat="49.60197" lon="4.94689">
        <ele>266.42</ele>
        <time>2018-10-03T13:14:41Z</time>
      </trkpt>
      <trkpt lat="49.602" lon="4.94674">
        <ele>267.86</ele>
        <time>2018-10-03T13:14:55Z</time>
      </trkpt>
      <trkpt lat="49.60204" lon="4.94648">
        <ele>267.38</ele>
        <time>2018-10-03T13:15:11Z</time>
      </trkpt>
      <trkpt lat="49.60209" lon="4.94611">
        <ele>269.79</ele>
        <time>2018-10-03T13:15:32Z</time>
      </trkpt>
      <trkpt lat="49.60213" lon="4.94582">
        <ele>271.23</ele>
        <time>2018-10-03T13:15:50Z</time>
      </trkpt>
      <trkpt lat="49.60218" lon="4.9455">
        <ele>271.71</ele>
        <time>2018-10-03T13:16:10Z</time>
      </trkpt>
      <trkpt lat="49.60219" lon="4.94546">
        <ele>272.67</ele>
        <time>2018-10-03T13:16:23Z</time>
      </trkpt>
      <trkpt lat="49.60219" lon="4.94548">
        <ele>272.19</ele>
        <time>2018-10-03T13:16:39Z</time>
      </trkpt>
      <trkpt lat="49.60217" lon="4.94552">
        <ele>271.23</ele>
        <time>2018-10-03T13:16:45Z</time>
      </trkpt>
      <trkpt lat="49.60213" lon="4.94586">
        <ele>270.27</ele>
        <time>2018-10-03T13:17:06Z</time>
      </trkpt>
      <trkpt lat="49.60209" lon="4.94613">
        <ele>268.35</ele>
        <time>2018-10-03T13:17:22Z</time>
      </trkpt>
      <trkpt lat="49.60207" lon="4.94637">
        <ele>265.46</ele>
        <time>2018-10-03T13:17:39Z</time>
      </trkpt>
      <trkpt lat="49.60203" lon="4.94663">
        <ele>263.54</ele>
        <time>2018-10-03T13:17:57Z</time>
      </trkpt>
      <trkpt lat="49.602" lon="4.94686">
        <ele>262.58</ele>
        <time>2018-10-03T13:18:15Z</time>
      </trkpt>
      <trkpt lat="49.60201" lon="4.94691">
        <ele>262.58</ele>
        <time>2018-10-03T13:18:34Z</time>
      </trkpt>
      <trkpt lat="49.60205" lon="4.94711">
        <ele>258.25</ele>
        <time>2018-10-03T13:18:52Z</time>
      </trkpt>
      <trkpt lat="49.6021" lon="4.94741">
        <ele>254.89</ele>
        <time>2018-10-03T13:19:07Z</time>
      </trkpt>
      <trkpt lat="49.60209" lon="4.94757">
        <ele>251.52</ele>
        <time>2018-10-03T13:19:20Z</time>
      </trkpt>
      <trkpt lat="49.60208" lon="4.94778">
        <ele>249.6</ele>
        <time>2018-10-03T13:19:37Z</time>
      </trkpt>
      <trkpt lat="49.60205" lon="4.94806">
        <ele>248.16</ele>
        <time>2018-10-03T13:19:53Z</time>
      </trkpt>
      <trkpt lat="49.60203" lon="4.94826">
        <ele>246.23</ele>
        <time>2018-10-03T13:20:09Z</time>
      </trkpt>
      <trkpt lat="49.60201" lon="4.94848">
        <ele>242.39</ele>
        <time>2018-10-03T13:20:25Z</time>
      </trkpt>
      <trkpt lat="49.60198" lon="4.94866">
        <ele>241.43</ele>
        <time>2018-10-03T13:20:41Z</time>
      </trkpt>
      <trkpt lat="49.60192" lon="4.9489">
        <ele>242.39</ele>
        <time>2018-10-03T13:20:54Z</time>
      </trkpt>
      <trkpt lat="49.60187" lon="4.94912">
        <ele>242.87</ele>
        <time>2018-10-03T13:21:07Z</time>
      </trkpt>
      <trkpt lat="49.60183" lon="4.9493">
        <ele>241.43</ele>
        <time>2018-10-03T13:21:21Z</time>
      </trkpt>
      <trkpt lat="49.60181" lon="4.9495">
        <ele>241.91</ele>
        <time>2018-10-03T13:21:36Z</time>
      </trkpt>
      <trkpt lat="49.60181" lon="4.94972">
        <ele>240.47</ele>
        <time>2018-10-03T13:21:50Z</time>
      </trkpt>
      <trkpt lat="49.60182" lon="4.94998">
        <ele>240.47</ele>
        <time>2018-10-03T13:22:05Z</time>
      </trkpt>
      <trkpt lat="49.60184" lon="4.95014">
        <ele>239.02</ele>
        <time>2018-10-03T13:22:17Z</time>
      </trkpt>
      <trkpt lat="49.60185" lon="4.95042">
        <ele>236.14</ele>
        <time>2018-10-03T13:22:32Z</time>
      </trkpt>
      <trkpt lat="49.60182" lon="4.95065">
        <ele>232.78</ele>
        <time>2018-10-03T13:22:47Z</time>
      </trkpt>
      <trkpt lat="49.6018" lon="4.95087">
        <ele>228.93</ele>
        <time>2018-10-03T13:23:03Z</time>
      </trkpt>
      <trkpt lat="49.60176" lon="4.95111">
        <ele>225.57</ele>
        <time>2018-10-03T13:23:20Z</time>
      </trkpt>
      <trkpt lat="49.60174" lon="4.95138">
        <ele>224.12</ele>
        <time>2018-10-03T13:23:38Z</time>
      </trkpt>
      <trkpt lat="49.6017" lon="4.95164">
        <ele>219.8</ele>
        <time>2018-10-03T13:23:57Z</time>
      </trkpt>
      <trkpt lat="49.60168" lon="4.95191">
        <ele>217.88</ele>
        <time>2018-10-03T13:24:15Z</time>
      </trkpt>
      <trkpt lat="49.60167" lon="4.9522">
        <ele>215.95</ele>
        <time>2018-10-03T13:24:33Z</time>
      </trkpt>
      <trkpt lat="49.60167" lon="4.95246">
        <ele>214.51</ele>
        <time>2018-10-03T13:24:50Z</time>
      </trkpt>
      <trkpt lat="49.60167" lon="4.9527">
        <ele>212.59</ele>
        <time>2018-10-03T13:25:07Z</time>
      </trkpt>
      <trkpt lat="49.60165" lon="4.95299">
        <ele>210.19</ele>
        <time>2018-10-03T13:25:25Z</time>
      </trkpt>
      <trkpt lat="49.60162" lon="4.95323">
        <ele>208.26</ele>
        <time>2018-10-03T13:25:43Z</time>
      </trkpt>
      <trkpt lat="49.60161" lon="4.95339">
        <ele>207.78</ele>
        <time>2018-10-03T13:25:59Z</time>
      </trkpt>
      <trkpt lat="49.60161" lon="4.95357">
        <ele>209.22</ele>
        <time>2018-10-03T13:26:16Z</time>
      </trkpt>
      <trkpt lat="49.60161" lon="4.9538">
        <ele>204.42</ele>
        <time>2018-10-03T13:26:34Z</time>
      </trkpt>
      <trkpt lat="49.60165" lon="4.95383">
        <ele>204.42</ele>
        <time>2018-10-03T13:26:48Z</time>
      </trkpt>
      <trkpt lat="49.60161" lon="4.95388">
        <ele>203.94</ele>
        <time>2018-10-03T13:27:02Z</time>
      </trkpt>
      <trkpt lat="49.60162" lon="4.95398">
        <ele>201.53</ele>
        <time>2018-10-03T13:27:16Z</time>
      </trkpt>
      <trkpt lat="49.60165" lon="4.9542">
        <ele>198.65</ele>
        <time>2018-10-03T13:27:33Z</time>
      </trkpt>
      <trkpt lat="49.60167" lon="4.95427">
        <ele>198.65</ele>
        <time>2018-10-03T13:27:38Z</time>
      </trkpt>
      <trkpt lat="49.6017" lon="4.9545">
        <ele>198.65</ele>
        <time>2018-10-03T13:27:54Z</time>
      </trkpt>
      <trkpt lat="49.60172" lon="4.95469">
        <ele>196.25</ele>
        <time>2018-10-03T13:28:09Z</time>
      </trkpt>
      <trkpt lat="49.60176" lon="4.95485">
        <ele>193.36</ele>
        <time>2018-10-03T13:28:23Z</time>
      </trkpt>
      <trkpt lat="49.60177" lon="4.95506">
        <ele>190.96</ele>
        <time>2018-10-03T13:28:39Z</time>
      </trkpt>
      <trkpt lat="49.60181" lon="4.95516">
        <ele>190.48</ele>
        <time>2018-10-03T13:28:54Z</time>
      </trkpt>
      <trkpt lat="49.60181" lon="4.95517">
        <ele>191.44</ele>
        <time>2018-10-03T13:29:15Z</time>
      </trkpt>
      <trkpt lat="49.60187" lon="4.95516">
        <ele>192.88</ele>
        <time>2018-10-03T13:29:32Z</time>
      </trkpt>
      <trkpt lat="49.6019" lon="4.95515">
        <ele>192.88</ele>
        <time>2018-10-03T13:29:36Z</time>
      </trkpt>
      <trkpt lat="49.60208" lon="4.95512">
        <ele>192.88</ele>
        <time>2018-10-03T13:29:53Z</time>
      </trkpt>
      <trkpt lat="49.6023" lon="4.95512">
        <ele>192.4</ele>
        <time>2018-10-03T13:30:14Z</time>
      </trkpt>
      <trkpt lat="49.60232" lon="4.95513">
        <ele>192.4</ele>
        <time>2018-10-03T13:30:17Z</time>
      </trkpt>
      <trkpt lat="49.60251" lon="4.95523">
        <ele>190.96</ele>
        <time>2018-10-03T13:30:36Z</time>
      </trkpt>
      <trkpt lat="49.60271" lon="4.95541">
        <ele>190</ele>
        <time>2018-10-03T13:30:58Z</time>
      </trkpt>
      <trkpt lat="49.60287" lon="4.95556">
        <ele>188.56</ele>
        <time>2018-10-03T13:31:17Z</time>
      </trkpt>
      <trkpt lat="49.60299" lon="4.95577">
        <ele>187.59</ele>
        <time>2018-10-03T13:31:33Z</time>
      </trkpt>
      <trkpt lat="49.60313" lon="4.95599">
        <ele>188.08</ele>
        <time>2018-10-03T13:31:50Z</time>
      </trkpt>
      <trkpt lat="49.60327" lon="4.95629">
        <ele>188.56</ele>
        <time>2018-10-03T13:32:10Z</time>
      </trkpt>
      <trkpt lat="49.60338" lon="4.95655">
        <ele>186.63</ele>
        <time>2018-10-03T13:32:29Z</time>
      </trkpt>
      <trkpt lat="49.60341" lon="4.95669">
        <ele>184.71</ele>
        <time>2018-10-03T13:32:48Z</time>
      </trkpt>
      <trkpt lat="49.60344" lon="4.95679">
        <ele>184.23</ele>
        <time>2018-10-03T13:32:55Z</time>
      </trkpt>
      <trkpt lat="49.60347" lon="4.95685">
        <ele>184.23</ele>
        <time>2018-10-03T13:32:59Z</time>
      </trkpt>
      <trkpt lat="49.60367" lon="4.95703">
        <ele>184.71</ele>
        <time>2018-10-03T13:33:20Z</time>
      </trkpt>
      <trkpt lat="49.60385" lon="4.95708">
        <ele>184.23</ele>
        <time>2018-10-03T13:33:36Z</time>
      </trkpt>
      <trkpt lat="49.60389" lon="4.95708">
        <ele>183.75</ele>
        <time>2018-10-03T13:33:39Z</time>
      </trkpt>
      <trkpt lat="49.6041" lon="4.95713">
        <ele>183.27</ele>
        <time>2018-10-03T13:33:59Z</time>
      </trkpt>
      <trkpt lat="49.6043" lon="4.95706">
        <ele>184.23</ele>
        <time>2018-10-03T13:34:18Z</time>
      </trkpt>
      <trkpt lat="49.60451" lon="4.95692">
        <ele>188.56</ele>
        <time>2018-10-03T13:34:36Z</time>
      </trkpt>
      <trkpt lat="49.60464" lon="4.95669">
        <ele>182.79</ele>
        <time>2018-10-03T13:34:55Z</time>
      </trkpt>
      <trkpt lat="49.60475" lon="4.95647">
        <ele>180.38</ele>
        <time>2018-10-03T13:35:10Z</time>
      </trkpt>
      <trkpt lat="49.60491" lon="4.95629">
        <ele>179.9</ele>
        <time>2018-10-03T13:35:28Z</time>
      </trkpt>
      <trkpt lat="49.60509" lon="4.95617">
        <ele>180.38</ele>
        <time>2018-10-03T13:35:47Z</time>
      </trkpt>
      <trkpt lat="49.60511" lon="4.95616">
        <ele>182.31</ele>
        <time>2018-10-03T13:35:59Z</time>
      </trkpt>
      <trkpt lat="49.60516" lon="4.95617">
        <ele>183.27</ele>
        <time>2018-10-03T13:36:14Z</time>
      </trkpt>
      <trkpt lat="49.60516" lon="4.95618">
        <ele>183.27</ele>
        <time>2018-10-03T13:36:33Z</time>
      </trkpt>
      <trkpt lat="49.60516" lon="4.95618">
        <ele>182.79</ele>
        <time>2018-10-03T13:37:07Z</time>
      </trkpt>
      <trkpt lat="49.60522" lon="4.95611">
        <ele>181.83</ele>
        <time>2018-10-03T13:37:22Z</time>
      </trkpt>
      <trkpt lat="49.60542" lon="4.95599">
        <ele>183.27</ele>
        <time>2018-10-03T13:37:40Z</time>
      </trkpt>
      <trkpt lat="49.60559" lon="4.95589">
        <ele>185.67</ele>
        <time>2018-10-03T13:37:57Z</time>
      </trkpt>
      <trkpt lat="49.60579" lon="4.95577">
        <ele>187.11</ele>
        <time>2018-10-03T13:38:16Z</time>
      </trkpt>
      <trkpt lat="49.60597" lon="4.95566">
        <ele>187.11</ele>
        <time>2018-10-03T13:38:32Z</time>
      </trkpt>
      <trkpt lat="49.6062" lon="4.95549">
        <ele>186.15</ele>
        <time>2018-10-03T13:38:54Z</time>
      </trkpt>
      <trkpt lat="49.60639" lon="4.95531">
        <ele>186.15</ele>
        <time>2018-10-03T13:39:15Z</time>
      </trkpt>
      <trkpt lat="49.60665" lon="4.95507">
        <ele>188.08</ele>
        <time>2018-10-03T13:39:38Z</time>
      </trkpt>
      <trkpt lat="49.60678" lon="4.95495">
        <ele>187.59</ele>
        <time>2018-10-03T13:39:54Z</time>
      </trkpt>
      <trkpt lat="49.60704" lon="4.95479">
        <ele>185.19</ele>
        <time>2018-10-03T13:40:15Z</time>
      </trkpt>
      <trkpt lat="49.60719" lon="4.95472">
        <ele>186.15</ele>
        <time>2018-10-03T13:40:27Z</time>
      </trkpt>
      <trkpt lat="49.60746" lon="4.95459">
        <ele>187.59</ele>
        <time>2018-10-03T13:40:48Z</time>
      </trkpt>
      <trkpt lat="49.60766" lon="4.95452">
        <ele>187.59</ele>
        <time>2018-10-03T13:41:05Z</time>
      </trkpt>
      <trkpt lat="49.60782" lon="4.9545">
        <ele>184.71</ele>
        <time>2018-10-03T13:41:19Z</time>
      </trkpt>
      <trkpt lat="49.60797" lon="4.95449">
        <ele>183.27</ele>
        <time>2018-10-03T13:41:31Z</time>
      </trkpt>
      <trkpt lat="49.60812" lon="4.95449">
        <ele>184.23</ele>
        <time>2018-10-03T13:41:45Z</time>
      </trkpt>
      <trkpt lat="49.60829" lon="4.9545">
        <ele>182.79</ele>
        <time>2018-10-03T13:42:05Z</time>
      </trkpt>
      <trkpt lat="49.60847" lon="4.95449">
        <ele>183.27</ele>
        <time>2018-10-03T13:42:21Z</time>
      </trkpt>
      <trkpt lat="49.60869" lon="4.95452">
        <ele>186.63</ele>
        <time>2018-10-03T13:42:39Z</time>
      </trkpt>
      <trkpt lat="49.60894" lon="4.95459">
        <ele>189.52</ele>
        <time>2018-10-03T13:42:59Z</time>
      </trkpt>
      <trkpt lat="49.6092" lon="4.95469">
        <ele>190</ele>
        <time>2018-10-03T13:43:20Z</time>
      </trkpt>
      <trkpt lat="49.60938" lon="4.95478">
        <ele>189.52</ele>
        <time>2018-10-03T13:43:37Z</time>
      </trkpt>
      <trkpt lat="49.60959" lon="4.95489">
        <ele>189.52</ele>
        <time>2018-10-03T13:43:57Z</time>
      </trkpt>
      <trkpt lat="49.6098" lon="4.955">
        <ele>189.04</ele>
        <time>2018-10-03T13:44:16Z</time>
      </trkpt>
      <trkpt lat="49.60985" lon="4.95503">
        <ele>188.56</ele>
        <time>2018-10-03T13:44:21Z</time>
      </trkpt>
      <trkpt lat="49.61004" lon="4.95515">
        <ele>188.56</ele>
        <time>2018-10-03T13:44:39Z</time>
      </trkpt>
      <trkpt lat="49.61024" lon="4.95527">
        <ele>190.48</ele>
        <time>2018-10-03T13:44:57Z</time>
      </trkpt>
      <trkpt lat="49.61043" lon="4.95537">
        <ele>189.04</ele>
        <time>2018-10-03T13:45:15Z</time>
      </trkpt>
      <trkpt lat="49.61069" lon="4.95545">
        <ele>191.92</ele>
        <time>2018-10-03T13:45:35Z</time>
      </trkpt>
      <trkpt lat="49.61084" lon="4.9553">
        <ele>194.32</ele>
        <time>2018-10-03T13:45:51Z</time>
      </trkpt>
      <trkpt lat="49.61085" lon="4.95517">
        <ele>195.77</ele>
        <time>2018-10-03T13:46:06Z</time>
      </trkpt>
      <trkpt lat="49.61086" lon="4.95518">
        <ele>197.21</ele>
        <time>2018-10-03T13:46:28Z</time>
      </trkpt>
      <trkpt lat="49.61085" lon="4.95518">
        <ele>195.28</ele>
        <time>2018-10-03T13:46:57Z</time>
      </trkpt>
      <trkpt lat="49.61084" lon="4.95519">
        <ele>195.28</ele>
        <time>2018-10-03T13:47:23Z</time>
      </trkpt>
      <trkpt lat="49.61085" lon="4.95521">
        <ele>196.25</ele>
        <time>2018-10-03T13:47:57Z</time>
      </trkpt>
      <trkpt lat="49.61084" lon="4.95521">
        <ele>197.69</ele>
        <time>2018-10-03T13:48:29Z</time>
      </trkpt>
      <trkpt lat="49.61084" lon="4.95521">
        <ele>196.25</ele>
        <time>2018-10-03T13:48:53Z</time>
      </trkpt>
      <trkpt lat="49.61084" lon="4.95523">
        <ele>196.25</ele>
        <time>2018-10-03T13:49:19Z</time>
      </trkpt>
      <trkpt lat="49.61085" lon="4.95524">
        <ele>196.73</ele>
        <time>2018-10-03T13:49:43Z</time>
      </trkpt>
      <trkpt lat="49.61085" lon="4.95527">
        <ele>198.17</ele>
        <time>2018-10-03T13:50:22Z</time>
      </trkpt>
      <trkpt lat="49.61084" lon="4.9553">
        <ele>198.65</ele>
        <time>2018-10-03T13:50:49Z</time>
      </trkpt>
      <trkpt lat="49.61084" lon="4.95531">
        <ele>198.17</ele>
        <time>2018-10-03T13:51:24Z</time>
      </trkpt>
      <trkpt lat="49.61084" lon="4.9553">
        <ele>198.65</ele>
        <time>2018-10-03T13:51:51Z</time>
      </trkpt>
      <trkpt lat="49.61085" lon="4.9553">
        <ele>198.65</ele>
        <time>2018-10-03T13:52:22Z</time>
      </trkpt>
      <trkpt lat="49.61084" lon="4.95528">
        <ele>199.61</ele>
        <time>2018-10-03T13:52:57Z</time>
      </trkpt>
      <trkpt lat="49.61084" lon="4.95527">
        <ele>199.13</ele>
        <time>2018-10-03T13:53:31Z</time>
      </trkpt>
      <trkpt lat="49.61085" lon="4.95528">
        <ele>199.13</ele>
        <time>2018-10-03T13:53:47Z</time>
      </trkpt>
      <trkpt lat="49.61085" lon="4.95529">
        <ele>198.65</ele>
        <time>2018-10-03T13:54:02Z</time>
      </trkpt>
      <trkpt lat="49.61084" lon="4.95531">
        <ele>198.17</ele>
        <time>2018-10-03T13:54:14Z</time>
      </trkpt>
      <trkpt lat="49.61083" lon="4.95535">
        <ele>196.73</ele>
        <time>2018-10-03T13:54:46Z</time>
      </trkpt>
      <trkpt lat="49.61082" lon="4.95537">
        <ele>196.73</ele>
        <time>2018-10-03T13:55:20Z</time>
      </trkpt>
      <trkpt lat="49.61083" lon="4.95532">
        <ele>197.21</ele>
        <time>2018-10-03T13:55:34Z</time>
      </trkpt>
      <trkpt lat="49.61085" lon="4.95521">
        <ele>197.21</ele>
        <time>2018-10-03T13:55:48Z</time>
      </trkpt>
      <trkpt lat="49.61085" lon="4.9552">
        <ele>196.73</ele>
        <time>2018-10-03T13:56:07Z</time>
      </trkpt>
      <trkpt lat="49.61085" lon="4.95518">
        <ele>196.73</ele>
        <time>2018-10-03T13:56:40Z</time>
      </trkpt>
      <trkpt lat="49.61084" lon="4.95518">
        <ele>196.73</ele>
        <time>2018-10-03T13:56:59Z</time>
      </trkpt>
      <trkpt lat="49.61092" lon="4.95522">
        <ele>195.77</ele>
        <time>2018-10-03T13:57:18Z</time>
      </trkpt>
      <trkpt lat="49.61111" lon="4.95522">
        <ele>195.77</ele>
        <time>2018-10-03T13:57:38Z</time>
      </trkpt>
      <trkpt lat="49.61131" lon="4.95524">
        <ele>195.28</ele>
        <time>2018-10-03T13:57:54Z</time>
      </trkpt>
      <trkpt lat="49.61153" lon="4.95529">
        <ele>193.84</ele>
        <time>2018-10-03T13:58:12Z</time>
      </trkpt>
      <trkpt lat="49.61169" lon="4.95535">
        <ele>190.96</ele>
        <time>2018-10-03T13:58:29Z</time>
      </trkpt>
      <trkpt lat="49.61187" lon="4.95541">
        <ele>190</ele>
        <time>2018-10-03T13:58:47Z</time>
      </trkpt>
      <trkpt lat="49.61209" lon="4.9555">
        <ele>193.84</ele>
        <time>2018-10-03T13:59:04Z</time>
      </trkpt>
      <trkpt lat="49.61226" lon="4.95558">
        <ele>193.36</ele>
        <time>2018-10-03T13:59:22Z</time>
      </trkpt>
      <trkpt lat="49.61238" lon="4.95564">
        <ele>193.84</ele>
        <time>2018-10-03T13:59:31Z</time>
      </trkpt>
      <trkpt lat="49.61257" lon="4.95576">
        <ele>192.88</ele>
        <time>2018-10-03T13:59:50Z</time>
      </trkpt>
      <trkpt lat="49.6127" lon="4.95581">
        <ele>191.92</ele>
        <time>2018-10-03T14:00:06Z</time>
      </trkpt>
      <trkpt lat="49.61286" lon="4.95594">
        <ele>192.4</ele>
        <time>2018-10-03T14:00:20Z</time>
      </trkpt>
      <trkpt lat="49.61305" lon="4.95603">
        <ele>190.48</ele>
        <time>2018-10-03T14:00:36Z</time>
      </trkpt>
      <trkpt lat="49.61322" lon="4.95614">
        <ele>191.44</ele>
        <time>2018-10-03T14:00:53Z</time>
      </trkpt>
      <trkpt lat="49.61336" lon="4.95632">
        <ele>190.96</ele>
        <time>2018-10-03T14:01:10Z</time>
      </trkpt>
      <trkpt lat="49.61346" lon="4.95655">
        <ele>187.11</ele>
        <time>2018-10-03T14:01:27Z</time>
      </trkpt>
      <trkpt lat="49.61356" lon="4.95683">
        <ele>182.79</ele>
        <time>2018-10-03T14:01:45Z</time>
      </trkpt>
      <trkpt lat="49.6137" lon="4.95708">
        <ele>184.71</ele>
        <time>2018-10-03T14:02:02Z</time>
      </trkpt>
      <trkpt lat="49.61382" lon="4.95724">
        <ele>184.23</ele>
        <time>2018-10-03T14:02:19Z</time>
      </trkpt>
      <trkpt lat="49.61396" lon="4.95743">
        <ele>187.59</ele>
        <time>2018-10-03T14:02:32Z</time>
      </trkpt>
      <trkpt lat="49.61408" lon="4.9576">
        <ele>190.96</ele>
        <time>2018-10-03T14:02:47Z</time>
      </trkpt>
      <trkpt lat="49.61415" lon="4.95766">
        <ele>189.04</ele>
        <time>2018-10-03T14:02:55Z</time>
      </trkpt>
      <trkpt lat="49.61433" lon="4.95783">
        <ele>190.96</ele>
        <time>2018-10-03T14:03:12Z</time>
      </trkpt>
      <trkpt lat="49.6145" lon="4.95798">
        <ele>193.36</ele>
        <time>2018-10-03T14:03:29Z</time>
      </trkpt>
      <trkpt lat="49.61469" lon="4.95814">
        <ele>195.77</ele>
        <time>2018-10-03T14:03:47Z</time>
      </trkpt>
      <trkpt lat="49.61488" lon="4.95829">
        <ele>198.17</ele>
        <time>2018-10-03T14:04:05Z</time>
      </trkpt>
      <trkpt lat="49.61506" lon="4.95841">
        <ele>199.61</ele>
        <time>2018-10-03T14:04:21Z</time>
      </trkpt>
      <trkpt lat="49.61524" lon="4.95853">
        <ele>196.73</ele>
        <time>2018-10-03T14:04:39Z</time>
      </trkpt>
      <trkpt lat="49.6154" lon="4.95865">
        <ele>192.4</ele>
        <time>2018-10-03T14:04:55Z</time>
      </trkpt>
      <trkpt lat="49.61558" lon="4.95875">
        <ele>189.04</ele>
        <time>2018-10-03T14:05:11Z</time>
      </trkpt>
      <trkpt lat="49.61575" lon="4.95884">
        <ele>188.08</ele>
        <time>2018-10-03T14:05:27Z</time>
      </trkpt>
      <trkpt lat="49.61593" lon="4.95896">
        <ele>188.08</ele>
        <time>2018-10-03T14:05:45Z</time>
      </trkpt>
      <trkpt lat="49.61615" lon="4.95905">
        <ele>187.11</ele>
        <time>2018-10-03T14:06:04Z</time>
      </trkpt>
      <trkpt lat="49.61633" lon="4.95917">
        <ele>185.67</ele>
        <time>2018-10-03T14:06:21Z</time>
      </trkpt>
      <trkpt lat="49.61653" lon="4.95927">
        <ele>183.27</ele>
        <time>2018-10-03T14:06:38Z</time>
      </trkpt>
      <trkpt lat="49.61666" lon="4.95935">
        <ele>182.79</ele>
        <time>2018-10-03T14:06:49Z</time>
      </trkpt>
      <trkpt lat="49.61678" lon="4.95943">
        <ele>183.27</ele>
        <time>2018-10-03T14:07:01Z</time>
      </trkpt>
      <trkpt lat="49.61699" lon="4.95968">
        <ele>186.63</ele>
        <time>2018-10-03T14:07:21Z</time>
      </trkpt>
      <trkpt lat="49.61715" lon="4.95982">
        <ele>190.96</ele>
        <time>2018-10-03T14:07:36Z</time>
      </trkpt>
      <trkpt lat="49.61731" lon="4.95993">
        <ele>190.96</ele>
        <time>2018-10-03T14:07:52Z</time>
      </trkpt>
      <trkpt lat="49.61756" lon="4.95997">
        <ele>192.4</ele>
        <time>2018-10-03T14:08:11Z</time>
      </trkpt>
      <trkpt lat="49.61779" lon="4.96007">
        <ele>191.44</ele>
        <time>2018-10-03T14:08:30Z</time>
      </trkpt>
      <trkpt lat="49.61797" lon="4.96013">
        <ele>187.11</ele>
        <time>2018-10-03T14:08:48Z</time>
      </trkpt>
      <trkpt lat="49.6182" lon="4.96023">
        <ele>190</ele>
        <time>2018-10-03T14:09:05Z</time>
      </trkpt>
      <trkpt lat="49.61839" lon="4.96028">
        <ele>185.19</ele>
        <time>2018-10-03T14:09:24Z</time>
      </trkpt>
      <trkpt lat="49.61858" lon="4.9603">
        <ele>183.75</ele>
        <time>2018-10-03T14:09:42Z</time>
      </trkpt>
      <trkpt lat="49.61879" lon="4.96035">
        <ele>177.5</ele>
        <time>2018-10-03T14:10:02Z</time>
      </trkpt>
      <trkpt lat="49.61893" lon="4.96037">
        <ele>175.1</ele>
        <time>2018-10-03T14:10:14Z</time>
      </trkpt>
      <trkpt lat="49.61921" lon="4.96037">
        <ele>180.87</ele>
        <time>2018-10-03T14:10:34Z</time>
      </trkpt>
      <trkpt lat="49.61946" lon="4.9604">
        <ele>179.42</ele>
        <time>2018-10-03T14:10:55Z</time>
      </trkpt>
      <trkpt lat="49.61972" lon="4.96044">
        <ele>182.31</ele>
        <time>2018-10-03T14:11:15Z</time>
      </trkpt>
      <trkpt lat="49.61996" lon="4.96046">
        <ele>182.31</ele>
        <time>2018-10-03T14:11:35Z</time>
      </trkpt>
      <trkpt lat="49.62019" lon="4.96048">
        <ele>183.27</ele>
        <time>2018-10-03T14:11:54Z</time>
      </trkpt>
      <trkpt lat="49.62041" lon="4.96046">
        <ele>182.31</ele>
        <time>2018-10-03T14:12:13Z</time>
      </trkpt>
      <trkpt lat="49.62042" lon="4.96045">
        <ele>182.31</ele>
        <time>2018-10-03T14:12:23Z</time>
      </trkpt>
      <trkpt lat="49.62061" lon="4.9604">
        <ele>176.06</ele>
        <time>2018-10-03T14:12:42Z</time>
      </trkpt>
      <trkpt lat="49.62084" lon="4.96037">
        <ele>177.02</ele>
        <time>2018-10-03T14:13:00Z</time>
      </trkpt>
      <trkpt lat="49.621" lon="4.96035">
        <ele>176.06</ele>
        <time>2018-10-03T14:13:16Z</time>
      </trkpt>
      <trkpt lat="49.62102" lon="4.96037">
        <ele>177.02</ele>
        <time>2018-10-03T14:13:36Z</time>
      </trkpt>
      <trkpt lat="49.62101" lon="4.96038">
        <ele>177.98</ele>
        <time>2018-10-03T14:14:05Z</time>
      </trkpt>
      <trkpt lat="49.62099" lon="4.96038">
        <ele>178.94</ele>
        <time>2018-10-03T14:14:35Z</time>
      </trkpt>
      <trkpt lat="49.62099" lon="4.96037">
        <ele>181.35</ele>
        <time>2018-10-03T14:15:05Z</time>
      </trkpt>
      <trkpt lat="49.62098" lon="4.96037">
        <ele>181.35</ele>
        <time>2018-10-03T14:15:29Z</time>
      </trkpt>
      <trkpt lat="49.62098" lon="4.96036">
        <ele>180.87</ele>
        <time>2018-10-03T14:15:56Z</time>
      </trkpt>
      <trkpt lat="49.62096" lon="4.96036">
        <ele>182.31</ele>
        <time>2018-10-03T14:16:22Z</time>
      </trkpt>
      <trkpt lat="49.62095" lon="4.96035">
        <ele>182.79</ele>
        <time>2018-10-03T14:16:49Z</time>
      </trkpt>
      <trkpt lat="49.62096" lon="4.96035">
        <ele>184.23</ele>
        <time>2018-10-03T14:17:15Z</time>
      </trkpt>
      <trkpt lat="49.62095" lon="4.96035">
        <ele>184.23</ele>
        <time>2018-10-03T14:17:40Z</time>
      </trkpt>
      <trkpt lat="49.62096" lon="4.96036">
        <ele>184.71</ele>
        <time>2018-10-03T14:18:02Z</time>
      </trkpt>
      <trkpt lat="49.62096" lon="4.96037">
        <ele>185.19</ele>
        <time>2018-10-03T14:18:30Z</time>
      </trkpt>
      <trkpt lat="49.62096" lon="4.96037">
        <ele>185.67</ele>
        <time>2018-10-03T14:18:51Z</time>
      </trkpt>
      <trkpt lat="49.62095" lon="4.96037">
        <ele>186.63</ele>
        <time>2018-10-03T14:19:21Z</time>
      </trkpt>
      <trkpt lat="49.62095" lon="4.96037">
        <ele>187.11</ele>
        <time>2018-10-03T14:19:53Z</time>
      </trkpt>
      <trkpt lat="49.62095" lon="4.96037">
        <ele>186.15</ele>
        <time>2018-10-03T14:20:20Z</time>
      </trkpt>
      <trkpt lat="49.62096" lon="4.96036">
        <ele>187.11</ele>
        <time>2018-10-03T14:20:49Z</time>
      </trkpt>
      <trkpt lat="49.62096" lon="4.96035">
        <ele>187.59</ele>
        <time>2018-10-03T14:21:12Z</time>
      </trkpt>
      <trkpt lat="49.62096" lon="4.96034">
        <ele>188.08</ele>
        <time>2018-10-03T14:21:41Z</time>
      </trkpt>
      <trkpt lat="49.62096" lon="4.96034">
        <ele>188.56</ele>
        <time>2018-10-03T14:22:10Z</time>
      </trkpt>
      <trkpt lat="49.62096" lon="4.96034">
        <ele>188.08</ele>
        <time>2018-10-03T14:22:35Z</time>
      </trkpt>
      <trkpt lat="49.62096" lon="4.96034">
        <ele>188.08</ele>
        <time>2018-10-03T14:22:57Z</time>
      </trkpt>
      <trkpt lat="49.62097" lon="4.96033">
        <ele>188.08</ele>
        <time>2018-10-03T14:23:05Z</time>
      </trkpt>
      <trkpt lat="49.62114" lon="4.96028">
        <ele>181.83</ele>
        <time>2018-10-03T14:23:19Z</time>
      </trkpt>
      <trkpt lat="49.62118" lon="4.96029">
        <ele>181.35</ele>
        <time>2018-10-03T14:23:33Z</time>
      </trkpt>
      <trkpt lat="49.6212" lon="4.9603">
        <ele>180.38</ele>
        <time>2018-10-03T14:23:53Z</time>
      </trkpt>
      <trkpt lat="49.62128" lon="4.96027">
        <ele>181.35</ele>
        <time>2018-10-03T14:24:12Z</time>
      </trkpt>
      <trkpt lat="49.62132" lon="4.96024">
        <ele>181.35</ele>
        <time>2018-10-03T14:24:16Z</time>
      </trkpt>
      <trkpt lat="49.62149" lon="4.96014">
        <ele>177.5</ele>
        <time>2018-10-03T14:24:33Z</time>
      </trkpt>
      <trkpt lat="49.62153" lon="4.96011">
        <ele>175.58</ele>
        <time>2018-10-03T14:24:48Z</time>
      </trkpt>
      <trkpt lat="49.62163" lon="4.96012">
        <ele>175.58</ele>
        <time>2018-10-03T14:25:05Z</time>
      </trkpt>
      <trkpt lat="49.62183" lon="4.96019">
        <ele>171.25</ele>
        <time>2018-10-03T14:25:22Z</time>
      </trkpt>
      <trkpt lat="49.62203" lon="4.96014">
        <ele>169.81</ele>
        <time>2018-10-03T14:25:40Z</time>
      </trkpt>
      <trkpt lat="49.62204" lon="4.96015">
        <ele>169.81</ele>
        <time>2018-10-03T14:25:41Z</time>
      </trkpt>
      <trkpt lat="49.62208" lon="4.96014">
        <ele>170.29</ele>
        <time>2018-10-03T14:25:44Z</time>
      </trkpt>
      <trkpt lat="49.62228" lon="4.95988">
        <ele>172.69</ele>
        <time>2018-10-03T14:26:03Z</time>
      </trkpt>
      <trkpt lat="49.6224" lon="4.95968">
        <ele>174.62</ele>
        <time>2018-10-03T14:26:18Z</time>
      </trkpt>
      <trkpt lat="49.62259" lon="4.95941">
        <ele>176.54</ele>
        <time>2018-10-03T14:26:38Z</time>
      </trkpt>
      <trkpt lat="49.6227" lon="4.95926">
        <ele>175.58</ele>
        <time>2018-10-03T14:26:52Z</time>
      </trkpt>
      <trkpt lat="49.6229" lon="4.95912">
        <ele>177.02</ele>
        <time>2018-10-03T14:27:10Z</time>
      </trkpt>
      <trkpt lat="49.62309" lon="4.95896">
        <ele>176.54</ele>
        <time>2018-10-03T14:27:27Z</time>
      </trkpt>
      <trkpt lat="49.62328" lon="4.95883">
        <ele>174.62</ele>
        <time>2018-10-03T14:27:46Z</time>
      </trkpt>
      <trkpt lat="49.62346" lon="4.95883">
        <ele>174.62</ele>
        <time>2018-10-03T14:28:03Z</time>
      </trkpt>
      <trkpt lat="49.62353" lon="4.95912">
        <ele>179.9</ele>
        <time>2018-10-03T14:28:21Z</time>
      </trkpt>
      <trkpt lat="49.62363" lon="4.95938">
        <ele>181.35</ele>
        <time>2018-10-03T14:28:36Z</time>
      </trkpt>
      <trkpt lat="49.62368" lon="4.9595">
        <ele>179.9</ele>
        <time>2018-10-03T14:28:43Z</time>
      </trkpt>
      <trkpt lat="49.62375" lon="4.95978">
        <ele>182.31</ele>
        <time>2018-10-03T14:28:59Z</time>
      </trkpt>
      <trkpt lat="49.62376" lon="4.95979">
        <ele>182.31</ele>
        <time>2018-10-03T14:29:00Z</time>
      </trkpt>
      <trkpt lat="49.62382" lon="4.96006">
        <ele>181.83</ele>
        <time>2018-10-03T14:29:16Z</time>
      </trkpt>
      <trkpt lat="49.62392" lon="4.96037">
        <ele>181.35</ele>
        <time>2018-10-03T14:29:32Z</time>
      </trkpt>
      <trkpt lat="49.62404" lon="4.96055">
        <ele>181.35</ele>
        <time>2018-10-03T14:29:49Z</time>
      </trkpt>
      <trkpt lat="49.62422" lon="4.96068">
        <ele>181.83</ele>
        <time>2018-10-03T14:30:07Z</time>
      </trkpt>
      <trkpt lat="49.62439" lon="4.96079">
        <ele>182.31</ele>
        <time>2018-10-03T14:30:24Z</time>
      </trkpt>
      <trkpt lat="49.62456" lon="4.9609">
        <ele>182.31</ele>
        <time>2018-10-03T14:30:41Z</time>
      </trkpt>
      <trkpt lat="49.62457" lon="4.9609">
        <ele>181.83</ele>
        <time>2018-10-03T14:30:42Z</time>
      </trkpt>
      <trkpt lat="49.62474" lon="4.96095">
        <ele>180.38</ele>
        <time>2018-10-03T14:30:59Z</time>
      </trkpt>
      <trkpt lat="49.62497" lon="4.96105">
        <ele>186.63</ele>
        <time>2018-10-03T14:31:17Z</time>
      </trkpt>
      <trkpt lat="49.62518" lon="4.96107">
        <ele>187.59</ele>
        <time>2018-10-03T14:31:36Z</time>
      </trkpt>
      <trkpt lat="49.62535" lon="4.96104">
        <ele>187.59</ele>
        <time>2018-10-03T14:31:52Z</time>
      </trkpt>
      <trkpt lat="49.62551" lon="4.96101">
        <ele>186.15</ele>
        <time>2018-10-03T14:32:07Z</time>
      </trkpt>
      <trkpt lat="49.62554" lon="4.961">
        <ele>186.15</ele>
        <time>2018-10-03T14:32:10Z</time>
      </trkpt>
      <trkpt lat="49.62575" lon="4.96092">
        <ele>190</ele>
        <time>2018-10-03T14:32:29Z</time>
      </trkpt>
      <trkpt lat="49.62597" lon="4.96093">
        <ele>191.92</ele>
        <time>2018-10-03T14:32:49Z</time>
      </trkpt>
      <trkpt lat="49.62614" lon="4.96101">
        <ele>189.04</ele>
        <time>2018-10-03T14:33:08Z</time>
      </trkpt>
      <trkpt lat="49.6263" lon="4.96116">
        <ele>182.79</ele>
        <time>2018-10-03T14:33:29Z</time>
      </trkpt>
      <trkpt lat="49.6264" lon="4.96131">
        <ele>175.58</ele>
        <time>2018-10-03T14:33:46Z</time>
      </trkpt>
      <trkpt lat="49.62649" lon="4.96144">
        <ele>165.96</ele>
        <time>2018-10-03T14:34:04Z</time>
      </trkpt>
      <trkpt lat="49.62661" lon="4.96161">
        <ele>163.56</ele>
        <time>2018-10-03T14:34:20Z</time>
      </trkpt>
      <trkpt lat="49.62662" lon="4.96162">
        <ele>163.56</ele>
        <time>2018-10-03T14:34:21Z</time>
      </trkpt>
      <trkpt lat="49.62681" lon="4.96191">
        <ele>168.85</ele>
        <time>2018-10-03T14:34:42Z</time>
      </trkpt>
      <trkpt lat="49.62698" lon="4.96215">
        <ele>173.66</ele>
        <time>2018-10-03T14:34:59Z</time>
      </trkpt>
      <trkpt lat="49.62709" lon="4.96223">
        <ele>176.06</ele>
        <time>2018-10-03T14:35:14Z</time>
      </trkpt>
      <trkpt lat="49.62732" lon="4.96236">
        <ele>177.98</ele>
        <time>2018-10-03T14:35:33Z</time>
      </trkpt>
      <trkpt lat="49.62745" lon="4.96245">
        <ele>177.5</ele>
        <time>2018-10-03T14:35:47Z</time>
      </trkpt>
      <trkpt lat="49.62766" lon="4.96261">
        <ele>177.02</ele>
        <time>2018-10-03T14:36:07Z</time>
      </trkpt>
      <trkpt lat="49.62787" lon="4.96274">
        <ele>177.02</ele>
        <time>2018-10-03T14:36:27Z</time>
      </trkpt>
      <trkpt lat="49.6279" lon="4.96277">
        <ele>176.54</ele>
        <time>2018-10-03T14:36:30Z</time>
      </trkpt>
      <trkpt lat="49.6281" lon="4.96294">
        <ele>178.46</ele>
        <time>2018-10-03T14:36:51Z</time>
      </trkpt>
      <trkpt lat="49.62822" lon="4.96299">
        <ele>175.58</ele>
        <time>2018-10-03T14:37:02Z</time>
      </trkpt>
      <trkpt lat="49.62847" lon="4.96302">
        <ele>174.62</ele>
        <time>2018-10-03T14:37:23Z</time>
      </trkpt>
      <trkpt lat="49.62869" lon="4.96316">
        <ele>180.87</ele>
        <time>2018-10-03T14:37:42Z</time>
      </trkpt>
      <trkpt lat="49.62887" lon="4.9633">
        <ele>178.46</ele>
        <time>2018-10-03T14:38:00Z</time>
      </trkpt>
      <trkpt lat="49.62908" lon="4.96348">
        <ele>182.79</ele>
        <time>2018-10-03T14:38:20Z</time>
      </trkpt>
      <trkpt lat="49.62921" lon="4.96364">
        <ele>178.94</ele>
        <time>2018-10-03T14:38:36Z</time>
      </trkpt>
      <trkpt lat="49.6293" lon="4.9637">
        <ele>172.21</ele>
        <time>2018-10-03T14:38:51Z</time>
      </trkpt>
      <trkpt lat="49.62945" lon="4.96379">
        <ele>165</ele>
        <time>2018-10-03T14:39:07Z</time>
      </trkpt>
      <trkpt lat="49.62961" lon="4.96394">
        <ele>164.04</ele>
        <time>2018-10-03T14:39:20Z</time>
      </trkpt>
      <trkpt lat="49.62981" lon="4.96406">
        <ele>162.12</ele>
        <time>2018-10-03T14:39:36Z</time>
      </trkpt>
      <trkpt lat="49.63007" lon="4.96421">
        <ele>170.77</ele>
        <time>2018-10-03T14:39:54Z</time>
      </trkpt>
      <trkpt lat="49.63026" lon="4.96435">
        <ele>174.62</ele>
        <time>2018-10-03T14:40:11Z</time>
      </trkpt>
      <trkpt lat="49.6305" lon="4.96452">
        <ele>176.54</ele>
        <time>2018-10-03T14:40:32Z</time>
      </trkpt>
      <trkpt lat="49.63069" lon="4.96462">
        <ele>177.02</ele>
        <time>2018-10-03T14:40:48Z</time>
      </trkpt>
      <trkpt lat="49.63091" lon="4.96477">
        <ele>175.58</ele>
        <time>2018-10-03T14:41:09Z</time>
      </trkpt>
      <trkpt lat="49.63114" lon="4.96493">
        <ele>175.58</ele>
        <time>2018-10-03T14:41:29Z</time>
      </trkpt>
      <trkpt lat="49.63132" lon="4.96502">
        <ele>175.1</ele>
        <time>2018-10-03T14:41:46Z</time>
      </trkpt>
      <trkpt lat="49.63153" lon="4.96516">
        <ele>176.54</ele>
        <time>2018-10-03T14:42:05Z</time>
      </trkpt>
      <trkpt lat="49.63177" lon="4.96527">
        <ele>177.5</ele>
        <time>2018-10-03T14:42:25Z</time>
      </trkpt>
      <trkpt lat="49.63197" lon="4.96539">
        <ele>177.02</ele>
        <time>2018-10-03T14:42:43Z</time>
      </trkpt>
      <trkpt lat="49.63216" lon="4.96554">
        <ele>177.02</ele>
        <time>2018-10-03T14:43:02Z</time>
      </trkpt>
      <trkpt lat="49.63233" lon="4.96568">
        <ele>174.14</ele>
        <time>2018-10-03T14:43:19Z</time>
      </trkpt>
      <trkpt lat="49.63252" lon="4.96585">
        <ele>174.14</ele>
        <time>2018-10-03T14:43:38Z</time>
      </trkpt>
      <trkpt lat="49.63274" lon="4.96602">
        <ele>173.66</ele>
        <time>2018-10-03T14:44:00Z</time>
      </trkpt>
      <trkpt lat="49.63286" lon="4.96624">
        <ele>172.21</ele>
        <time>2018-10-03T14:44:19Z</time>
      </trkpt>
      <trkpt lat="49.63297" lon="4.96653">
        <ele>170.29</ele>
        <time>2018-10-03T14:44:38Z</time>
      </trkpt>
      <trkpt lat="49.63307" lon="4.96672">
        <ele>168.37</ele>
        <time>2018-10-03T14:44:52Z</time>
      </trkpt>
      <trkpt lat="49.63321" lon="4.96699">
        <ele>174.62</ele>
        <time>2018-10-03T14:45:10Z</time>
      </trkpt>
      <trkpt lat="49.63327" lon="4.96707">
        <ele>173.17</ele>
        <time>2018-10-03T14:45:18Z</time>
      </trkpt>
      <trkpt lat="49.63332" lon="4.96741">
        <ele>172.21</ele>
        <time>2018-10-03T14:45:37Z</time>
      </trkpt>
      <trkpt lat="49.63336" lon="4.96768">
        <ele>170.29</ele>
        <time>2018-10-03T14:45:53Z</time>
      </trkpt>
      <trkpt lat="49.63343" lon="4.96792">
        <ele>168.85</ele>
        <time>2018-10-03T14:46:08Z</time>
      </trkpt>
      <trkpt lat="49.63356" lon="4.9682">
        <ele>169.81</ele>
        <time>2018-10-03T14:46:27Z</time>
      </trkpt>
      <trkpt lat="49.63366" lon="4.96831">
        <ele>169.33</ele>
        <time>2018-10-03T14:46:41Z</time>
      </trkpt>
      <trkpt lat="49.63371" lon="4.96842">
        <ele>170.29</ele>
        <time>2018-10-03T14:46:52Z</time>
      </trkpt>
      <trkpt lat="49.63389" lon="4.96861">
        <ele>172.69</ele>
        <time>2018-10-03T14:47:11Z</time>
      </trkpt>
      <trkpt lat="49.63405" lon="4.96877">
        <ele>172.21</ele>
        <time>2018-10-03T14:47:28Z</time>
      </trkpt>
      <trkpt lat="49.63406" lon="4.96878">
        <ele>172.21</ele>
        <time>2018-10-03T14:47:29Z</time>
      </trkpt>
      <trkpt lat="49.63415" lon="4.96891">
        <ele>173.17</ele>
        <time>2018-10-03T14:47:39Z</time>
      </trkpt>
      <trkpt lat="49.63434" lon="4.96916">
        <ele>175.1</ele>
        <time>2018-10-03T14:47:58Z</time>
      </trkpt>
      <trkpt lat="49.6345" lon="4.96937">
        <ele>173.17</ele>
        <time>2018-10-03T14:48:16Z</time>
      </trkpt>
      <trkpt lat="49.63465" lon="4.96969">
        <ele>172.69</ele>
        <time>2018-10-03T14:48:36Z</time>
      </trkpt>
      <trkpt lat="49.63471" lon="4.97004">
        <ele>173.66</ele>
        <time>2018-10-03T14:48:55Z</time>
      </trkpt>
      <trkpt lat="49.6348" lon="4.9704">
        <ele>177.5</ele>
        <time>2018-10-03T14:49:14Z</time>
      </trkpt>
      <trkpt lat="49.63491" lon="4.97076">
        <ele>178.94</ele>
        <time>2018-10-03T14:49:35Z</time>
      </trkpt>
      <trkpt lat="49.63499" lon="4.97104">
        <ele>179.9</ele>
        <time>2018-10-03T14:49:52Z</time>
      </trkpt>
      <trkpt lat="49.63509" lon="4.97139">
        <ele>179.42</ele>
        <time>2018-10-03T14:50:11Z</time>
      </trkpt>
      <trkpt lat="49.63516" lon="4.97165">
        <ele>182.31</ele>
        <time>2018-10-03T14:50:26Z</time>
      </trkpt>
      <trkpt lat="49.63522" lon="4.97191">
        <ele>181.35</ele>
        <time>2018-10-03T14:50:42Z</time>
      </trkpt>
      <trkpt lat="49.63523" lon="4.97201">
        <ele>181.35</ele>
        <time>2018-10-03T14:50:47Z</time>
      </trkpt>
      <trkpt lat="49.63535" lon="4.97237">
        <ele>181.83</ele>
        <time>2018-10-03T14:51:08Z</time>
      </trkpt>
      <trkpt lat="49.63545" lon="4.97274">
        <ele>180.87</ele>
        <time>2018-10-03T14:51:29Z</time>
      </trkpt>
      <trkpt lat="49.63556" lon="4.97308">
        <ele>182.79</ele>
        <time>2018-10-03T14:51:50Z</time>
      </trkpt>
      <trkpt lat="49.63566" lon="4.97335">
        <ele>182.79</ele>
        <time>2018-10-03T14:52:08Z</time>
      </trkpt>
      <trkpt lat="49.63585" lon="4.97356">
        <ele>182.31</ele>
        <time>2018-10-03T14:52:27Z</time>
      </trkpt>
      <trkpt lat="49.63606" lon="4.97379">
        <ele>184.71</ele>
        <time>2018-10-03T14:52:48Z</time>
      </trkpt>
      <trkpt lat="49.63623" lon="4.974">
        <ele>185.67</ele>
        <time>2018-10-03T14:53:07Z</time>
      </trkpt>
      <trkpt lat="49.63639" lon="4.97418">
        <ele>184.71</ele>
        <time>2018-10-03T14:53:26Z</time>
      </trkpt>
      <trkpt lat="49.63647" lon="4.97437">
        <ele>184.23</ele>
        <time>2018-10-03T14:53:40Z</time>
      </trkpt>
      <trkpt lat="49.63643" lon="4.97465">
        <ele>182.79</ele>
        <time>2018-10-03T14:53:59Z</time>
      </trkpt>
      <trkpt lat="49.6364" lon="4.97492">
        <ele>181.83</ele>
        <time>2018-10-03T14:54:17Z</time>
      </trkpt>
      <trkpt lat="49.63639" lon="4.97522">
        <ele>175.58</ele>
        <time>2018-10-03T14:54:36Z</time>
      </trkpt>
      <trkpt lat="49.63642" lon="4.97555">
        <ele>171.73</ele>
        <time>2018-10-03T14:54:57Z</time>
      </trkpt>
      <trkpt lat="49.63645" lon="4.97581">
        <ele>170.29</ele>
        <time>2018-10-03T14:55:15Z</time>
      </trkpt>
      <trkpt lat="49.63647" lon="4.97587">
        <ele>170.77</ele>
        <time>2018-10-03T14:55:19Z</time>
      </trkpt>
      <trkpt lat="49.63643" lon="4.97611">
        <ele>171.73</ele>
        <time>2018-10-03T14:55:33Z</time>
      </trkpt>
      <trkpt lat="49.63641" lon="4.97625">
        <ele>169.81</ele>
        <time>2018-10-03T14:55:45Z</time>
      </trkpt>
      <trkpt lat="49.63631" lon="4.97644">
        <ele>167.41</ele>
        <time>2018-10-03T14:56:01Z</time>
      </trkpt>
      <trkpt lat="49.63627" lon="4.97649">
        <ele>165.48</ele>
        <time>2018-10-03T14:56:06Z</time>
      </trkpt>
      <trkpt lat="49.63619" lon="4.97655">
        <ele>163.56</ele>
        <time>2018-10-03T14:56:19Z</time>
      </trkpt>
      <trkpt lat="49.63613" lon="4.97661">
        <ele>163.08</ele>
        <time>2018-10-03T14:56:31Z</time>
      </trkpt>
      <trkpt lat="49.63609" lon="4.97665">
        <ele>163.08</ele>
        <time>2018-10-03T14:56:45Z</time>
      </trkpt>
      <trkpt lat="49.63589" lon="4.97678">
        <ele>162.6</ele>
        <time>2018-10-03T14:57:03Z</time>
      </trkpt>
      <trkpt lat="49.63581" lon="4.97682">
        <ele>165</ele>
        <time>2018-10-03T14:57:15Z</time>
      </trkpt>
      <trkpt lat="49.63578" lon="4.97685">
        <ele>165.96</ele>
        <time>2018-10-03T14:57:19Z</time>
      </trkpt>
      <trkpt lat="49.63563" lon="4.97706">
        <ele>165.96</ele>
        <time>2018-10-03T14:57:39Z</time>
      </trkpt>
      <trkpt lat="49.6355" lon="4.9773">
        <ele>166.93</ele>
        <time>2018-10-03T14:57:57Z</time>
      </trkpt>
      <trkpt lat="49.63538" lon="4.97752">
        <ele>167.41</ele>
        <time>2018-10-03T14:58:16Z</time>
      </trkpt>
      <trkpt lat="49.63528" lon="4.97777">
        <ele>167.41</ele>
        <time>2018-10-03T14:58:36Z</time>
      </trkpt>
      <trkpt lat="49.63516" lon="4.97791">
        <ele>165.96</ele>
        <time>2018-10-03T14:58:51Z</time>
      </trkpt>
      <trkpt lat="49.63504" lon="4.97807">
        <ele>165.96</ele>
        <time>2018-10-03T14:59:08Z</time>
      </trkpt>
      <trkpt lat="49.63491" lon="4.97827">
        <ele>167.89</ele>
        <time>2018-10-03T14:59:26Z</time>
      </trkpt>
      <trkpt lat="49.63479" lon="4.97851">
        <ele>169.33</ele>
        <time>2018-10-03T14:59:42Z</time>
      </trkpt>
      <trkpt lat="49.63464" lon="4.97867">
        <ele>169.81</ele>
        <time>2018-10-03T14:59:58Z</time>
      </trkpt>
      <trkpt lat="49.63448" lon="4.97891">
        <ele>170.29</ele>
        <time>2018-10-03T15:00:18Z</time>
      </trkpt>
      <trkpt lat="49.63442" lon="4.97893">
        <ele>170.29</ele>
        <time>2018-10-03T15:00:23Z</time>
      </trkpt>
      <trkpt lat="49.63422" lon="4.97902">
        <ele>171.73</ele>
        <time>2018-10-03T15:00:43Z</time>
      </trkpt>
      <trkpt lat="49.63405" lon="4.97914">
        <ele>172.21</ele>
        <time>2018-10-03T15:01:02Z</time>
      </trkpt>
      <trkpt lat="49.63392" lon="4.9793">
        <ele>173.17</ele>
        <time>2018-10-03T15:01:21Z</time>
      </trkpt>
      <trkpt lat="49.63386" lon="4.97947">
        <ele>174.62</ele>
        <time>2018-10-03T15:01:32Z</time>
      </trkpt>
      <trkpt lat="49.63395" lon="4.97973">
        <ele>176.54</ele>
        <time>2018-10-03T15:01:51Z</time>
      </trkpt>
      <trkpt lat="49.63406" lon="4.97994">
        <ele>177.02</ele>
        <time>2018-10-03T15:02:08Z</time>
      </trkpt>
      <trkpt lat="49.63416" lon="4.9801">
        <ele>176.54</ele>
        <time>2018-10-03T15:02:23Z</time>
      </trkpt>
      <trkpt lat="49.6342" lon="4.9802">
        <ele>176.06</ele>
        <time>2018-10-03T15:02:31Z</time>
      </trkpt>
      <trkpt lat="49.63436" lon="4.98037">
        <ele>174.14</ele>
        <time>2018-10-03T15:02:48Z</time>
      </trkpt>
      <trkpt lat="49.63443" lon="4.98041">
        <ele>175.1</ele>
        <time>2018-10-03T15:03:02Z</time>
      </trkpt>
      <trkpt lat="49.63452" lon="4.98046">
        <ele>176.06</ele>
        <time>2018-10-03T15:03:15Z</time>
      </trkpt>
      <trkpt lat="49.63454" lon="4.98046">
        <ele>177.5</ele>
        <time>2018-10-03T15:03:32Z</time>
      </trkpt>
      <trkpt lat="49.63456" lon="4.98043">
        <ele>177.02</ele>
        <time>2018-10-03T15:03:55Z</time>
      </trkpt>
      <trkpt lat="49.63458" lon="4.98034">
        <ele>175.58</ele>
        <time>2018-10-03T15:04:09Z</time>
      </trkpt>
      <trkpt lat="49.63457" lon="4.98039">
        <ele>175.58</ele>
        <time>2018-10-03T15:04:26Z</time>
      </trkpt>
      <trkpt lat="49.63456" lon="4.9804">
        <ele>175.1</ele>
        <time>2018-10-03T15:04:37Z</time>
      </trkpt>
    </trkseg>
  </trk>
</gpx>